<?xml version="1.0" encoding="UTF-8" standalone="no" ?>
<gpx xmlns="http://www.topografix.com/GPX/1/1" xmlns:xsi="http://www.w3.org/2001/XMLSchema-instance" xsi:schemaLocation="http://www.topografix.com/GPX/1/1 http://www.topografix.com/GPX/1/1/gpx.xsd" version="1.1" creator="VisuGPX - https://www.visugpx.com">
  <metadata>
    <name>20210725_Trimbareilles-Forum de Luz_Reco_Tour des Cirques</name>
    <desc><![CDATA[Trace GPS relevée avec Iphigénie sur Moto G8 +.]]></desc>
  </metadata>
  <trk>
    <name><![CDATA[25 juil. 2021]]></name>
    <desc><![CDATA[comment ...]]></desc>
    <extensions>
      <line xmlns="http://www.topografix.com/GPX/gpx_style/0/2">
        <color>0000FF</color>
        <width>4</width>
      </line>
    </extensions>
    <trkseg>
      <trkpt lat="42.80625" lon="0.00492">
        <ele>1018</ele>
        <time>2021-07-25T06:30:06Z</time>
      </trkpt>
      <trkpt lat="42.80625" lon="0.00492">
        <ele>1018</ele>
        <time>2021-07-25T06:30:06Z</time>
      </trkpt>
      <trkpt lat="42.80625" lon="0.00492">
        <ele>1018</ele>
        <time>2021-07-25T06:30:07Z</time>
      </trkpt>
      <trkpt lat="42.8063" lon="0.0048">
        <ele>1018</ele>
        <time>2021-07-25T06:30:18Z</time>
      </trkpt>
      <trkpt lat="42.80638" lon="0.00474">
        <ele>1018</ele>
        <time>2021-07-25T06:30:27Z</time>
      </trkpt>
      <trkpt lat="42.80648" lon="0.00472">
        <ele>1016</ele>
        <time>2021-07-25T06:30:39Z</time>
      </trkpt>
      <trkpt lat="42.80648" lon="0.00472">
        <ele>1016</ele>
        <time>2021-07-25T06:32:59Z</time>
      </trkpt>
      <trkpt lat="42.8065" lon="0.0046">
        <ele>1016</ele>
        <time>2021-07-25T06:33:16Z</time>
      </trkpt>
      <trkpt lat="42.80651" lon="0.00447">
        <ele>1019</ele>
        <time>2021-07-25T06:33:30Z</time>
      </trkpt>
      <trkpt lat="42.80655" lon="0.00435">
        <ele>1021</ele>
        <time>2021-07-25T06:33:43Z</time>
      </trkpt>
      <trkpt lat="42.80661" lon="0.00425">
        <ele>1021</ele>
        <time>2021-07-25T06:33:57Z</time>
      </trkpt>
      <trkpt lat="42.80662" lon="0.0041">
        <ele>1025</ele>
        <time>2021-07-25T06:34:22Z</time>
      </trkpt>
      <trkpt lat="42.80658" lon="0.00396">
        <ele>1029</ele>
        <time>2021-07-25T06:34:52Z</time>
      </trkpt>
      <trkpt lat="42.80647" lon="0.00392">
        <ele>1036</ele>
        <time>2021-07-25T06:35:02Z</time>
      </trkpt>
      <trkpt lat="42.80644" lon="0.00379">
        <ele>1043</ele>
        <time>2021-07-25T06:35:29Z</time>
      </trkpt>
      <trkpt lat="42.80639" lon="0.00367">
        <ele>1049</ele>
        <time>2021-07-25T06:35:36Z</time>
      </trkpt>
      <trkpt lat="42.80632" lon="0.00357">
        <ele>1051</ele>
        <time>2021-07-25T06:35:48Z</time>
      </trkpt>
      <trkpt lat="42.80628" lon="0.00344">
        <ele>1049</ele>
        <time>2021-07-25T06:36:04Z</time>
      </trkpt>
      <trkpt lat="42.80618" lon="0.00322">
        <ele>1048</ele>
        <time>2021-07-25T06:36:23Z</time>
      </trkpt>
      <trkpt lat="42.80611" lon="0.00313">
        <ele>1054</ele>
        <time>2021-07-25T06:36:43Z</time>
      </trkpt>
      <trkpt lat="42.80606" lon="0.00302">
        <ele>1059</ele>
        <time>2021-07-25T06:36:55Z</time>
      </trkpt>
      <trkpt lat="42.80603" lon="0.00289">
        <ele>1059</ele>
        <time>2021-07-25T06:37:08Z</time>
      </trkpt>
      <trkpt lat="42.80602" lon="0.00275">
        <ele>1059</ele>
        <time>2021-07-25T06:37:23Z</time>
      </trkpt>
      <trkpt lat="42.80611" lon="0.00279">
        <ele>1059</ele>
        <time>2021-07-25T06:39:17Z</time>
      </trkpt>
      <trkpt lat="42.80621" lon="0.00283">
        <ele>1059</ele>
        <time>2021-07-25T06:39:23Z</time>
      </trkpt>
      <trkpt lat="42.80651" lon="0.00297">
        <ele>1078</ele>
        <time>2021-07-25T06:39:47Z</time>
      </trkpt>
      <trkpt lat="42.80659" lon="0.00302">
        <ele>1082</ele>
        <time>2021-07-25T06:39:57Z</time>
      </trkpt>
      <trkpt lat="42.80669" lon="0.00303">
        <ele>1084</ele>
        <time>2021-07-25T06:40:05Z</time>
      </trkpt>
      <trkpt lat="42.80689" lon="0.00305">
        <ele>1088</ele>
        <time>2021-07-25T06:40:23Z</time>
      </trkpt>
      <trkpt lat="42.80698" lon="0.00303">
        <ele>1090</ele>
        <time>2021-07-25T06:40:40Z</time>
      </trkpt>
      <trkpt lat="42.80702" lon="0.00292">
        <ele>1093</ele>
        <time>2021-07-25T06:41:01Z</time>
      </trkpt>
      <trkpt lat="42.80712" lon="0.00294">
        <ele>1094</ele>
        <time>2021-07-25T06:41:18Z</time>
      </trkpt>
      <trkpt lat="42.80732" lon="0.00293">
        <ele>1098</ele>
        <time>2021-07-25T06:41:39Z</time>
      </trkpt>
      <trkpt lat="42.80743" lon="0.00296">
        <ele>1101</ele>
        <time>2021-07-25T06:41:49Z</time>
      </trkpt>
      <trkpt lat="42.80752" lon="0.00304">
        <ele>1101</ele>
        <time>2021-07-25T06:41:56Z</time>
      </trkpt>
      <trkpt lat="42.80761" lon="0.00312">
        <ele>1104</ele>
        <time>2021-07-25T06:42:03Z</time>
      </trkpt>
      <trkpt lat="42.80768" lon="0.00301">
        <ele>1105</ele>
        <time>2021-07-25T06:42:13Z</time>
      </trkpt>
      <trkpt lat="42.80777" lon="0.00296">
        <ele>1107</ele>
        <time>2021-07-25T06:42:23Z</time>
      </trkpt>
      <trkpt lat="42.80787" lon="0.00298">
        <ele>1109</ele>
        <time>2021-07-25T06:42:32Z</time>
      </trkpt>
      <trkpt lat="42.80796" lon="0.00294">
        <ele>1110</ele>
        <time>2021-07-25T06:42:44Z</time>
      </trkpt>
      <trkpt lat="42.80805" lon="0.00289">
        <ele>1110</ele>
        <time>2021-07-25T06:42:56Z</time>
      </trkpt>
      <trkpt lat="42.80814" lon="0.00286">
        <ele>1114</ele>
        <time>2021-07-25T06:43:11Z</time>
      </trkpt>
      <trkpt lat="42.80824" lon="0.00281">
        <ele>1115</ele>
        <time>2021-07-25T06:43:33Z</time>
      </trkpt>
      <trkpt lat="42.80831" lon="0.00272">
        <ele>1120</ele>
        <time>2021-07-25T06:43:47Z</time>
      </trkpt>
      <trkpt lat="42.8084" lon="0.00267">
        <ele>1122</ele>
        <time>2021-07-25T06:44:02Z</time>
      </trkpt>
      <trkpt lat="42.8085" lon="0.00267">
        <ele>1126</ele>
        <time>2021-07-25T06:44:19Z</time>
      </trkpt>
      <trkpt lat="42.80855" lon="0.00255">
        <ele>1127</ele>
        <time>2021-07-25T06:44:34Z</time>
      </trkpt>
      <trkpt lat="42.80864" lon="0.00255">
        <ele>1132</ele>
        <time>2021-07-25T06:44:46Z</time>
      </trkpt>
      <trkpt lat="42.80871" lon="0.00246">
        <ele>1132</ele>
        <time>2021-07-25T06:45:02Z</time>
      </trkpt>
      <trkpt lat="42.80881" lon="0.00242">
        <ele>1136</ele>
        <time>2021-07-25T06:45:17Z</time>
      </trkpt>
      <trkpt lat="42.8089" lon="0.00247">
        <ele>1140</ele>
        <time>2021-07-25T06:45:30Z</time>
      </trkpt>
      <trkpt lat="42.80899" lon="0.00246">
        <ele>1146</ele>
        <time>2021-07-25T06:46:52Z</time>
      </trkpt>
      <trkpt lat="42.80908" lon="0.00245">
        <ele>1147</ele>
        <time>2021-07-25T06:47:03Z</time>
      </trkpt>
      <trkpt lat="42.80918" lon="0.00244">
        <ele>1151</ele>
        <time>2021-07-25T06:47:15Z</time>
      </trkpt>
      <trkpt lat="42.80926" lon="0.00235">
        <ele>1153</ele>
        <time>2021-07-25T06:47:23Z</time>
      </trkpt>
      <trkpt lat="42.80934" lon="0.00228">
        <ele>1157</ele>
        <time>2021-07-25T06:47:30Z</time>
      </trkpt>
      <trkpt lat="42.80942" lon="0.00221">
        <ele>1159</ele>
        <time>2021-07-25T06:47:38Z</time>
      </trkpt>
      <trkpt lat="42.80951" lon="0.00214">
        <ele>1161</ele>
        <time>2021-07-25T06:47:45Z</time>
      </trkpt>
      <trkpt lat="42.80957" lon="0.00204">
        <ele>1161</ele>
        <time>2021-07-25T06:47:53Z</time>
      </trkpt>
      <trkpt lat="42.80965" lon="0.00197">
        <ele>1163</ele>
        <time>2021-07-25T06:48:04Z</time>
      </trkpt>
      <trkpt lat="42.80973" lon="0.00189">
        <ele>1164</ele>
        <time>2021-07-25T06:48:12Z</time>
      </trkpt>
      <trkpt lat="42.80978" lon="0.00179">
        <ele>1166</ele>
        <time>2021-07-25T06:48:24Z</time>
      </trkpt>
      <trkpt lat="42.8098" lon="0.00166">
        <ele>1168</ele>
        <time>2021-07-25T06:48:43Z</time>
      </trkpt>
      <trkpt lat="42.80984" lon="0.00155">
        <ele>1168</ele>
        <time>2021-07-25T06:48:51Z</time>
      </trkpt>
      <trkpt lat="42.8099" lon="0.00144">
        <ele>1167</ele>
        <time>2021-07-25T06:48:58Z</time>
      </trkpt>
      <trkpt lat="42.80996" lon="0.00133">
        <ele>1162</ele>
        <time>2021-07-25T06:49:06Z</time>
      </trkpt>
      <trkpt lat="42.81" lon="0.00122">
        <ele>1159</ele>
        <time>2021-07-25T06:49:15Z</time>
      </trkpt>
      <trkpt lat="42.81001" lon="0.00109">
        <ele>1157</ele>
        <time>2021-07-25T06:49:25Z</time>
      </trkpt>
      <trkpt lat="42.80999" lon="0.00096">
        <ele>1159</ele>
        <time>2021-07-25T06:49:37Z</time>
      </trkpt>
      <trkpt lat="42.81003" lon="0.00084">
        <ele>1165</ele>
        <time>2021-07-25T06:50:18Z</time>
      </trkpt>
      <trkpt lat="42.81002" lon="0.0007">
        <ele>1166</ele>
        <time>2021-07-25T06:50:29Z</time>
      </trkpt>
      <trkpt lat="42.81004" lon="0.00057">
        <ele>1171</ele>
        <time>2021-07-25T06:50:38Z</time>
      </trkpt>
      <trkpt lat="42.81007" lon="0.00044">
        <ele>1174</ele>
        <time>2021-07-25T06:50:47Z</time>
      </trkpt>
      <trkpt lat="42.81012" lon="0.00019">
        <ele>1178</ele>
        <time>2021-07-25T06:51:07Z</time>
      </trkpt>
      <trkpt lat="42.81016" lon="6.0E-5">
        <ele>1181</ele>
        <time>2021-07-25T06:51:18Z</time>
      </trkpt>
      <trkpt lat="42.81021" lon="-5.0E-5">
        <ele>1181</ele>
        <time>2021-07-25T06:51:27Z</time>
      </trkpt>
      <trkpt lat="42.81022" lon="-0.00018">
        <ele>1180</ele>
        <time>2021-07-25T06:51:35Z</time>
      </trkpt>
      <trkpt lat="42.8103" lon="-0.00024">
        <ele>1179</ele>
        <time>2021-07-25T06:51:48Z</time>
      </trkpt>
      <trkpt lat="42.81038" lon="-0.00031">
        <ele>1180</ele>
        <time>2021-07-25T06:51:59Z</time>
      </trkpt>
      <trkpt lat="42.81046" lon="-0.00039">
        <ele>1181</ele>
        <time>2021-07-25T06:52:11Z</time>
      </trkpt>
      <trkpt lat="42.81061" lon="-0.00053">
        <ele>1180</ele>
        <time>2021-07-25T06:52:50Z</time>
      </trkpt>
      <trkpt lat="42.81066" lon="-0.00063">
        <ele>1188</ele>
        <time>2021-07-25T06:53:10Z</time>
      </trkpt>
      <trkpt lat="42.81071" lon="-0.00073">
        <ele>1189</ele>
        <time>2021-07-25T06:53:26Z</time>
      </trkpt>
      <trkpt lat="42.81087" lon="-0.00087">
        <ele>1194</ele>
        <time>2021-07-25T06:54:00Z</time>
      </trkpt>
      <trkpt lat="42.81099" lon="-0.00083">
        <ele>1200</ele>
        <time>2021-07-25T06:54:45Z</time>
      </trkpt>
      <trkpt lat="42.81117" lon="-0.001">
        <ele>1202</ele>
        <time>2021-07-25T06:55:10Z</time>
      </trkpt>
      <trkpt lat="42.81126" lon="-0.00106">
        <ele>1203</ele>
        <time>2021-07-25T06:55:24Z</time>
      </trkpt>
      <trkpt lat="42.81135" lon="-0.0011">
        <ele>1210</ele>
        <time>2021-07-25T06:55:40Z</time>
      </trkpt>
      <trkpt lat="42.81143" lon="-0.00117">
        <ele>1213</ele>
        <time>2021-07-25T06:55:55Z</time>
      </trkpt>
      <trkpt lat="42.81163" lon="-0.00115">
        <ele>1218</ele>
        <time>2021-07-25T06:56:13Z</time>
      </trkpt>
      <trkpt lat="42.81172" lon="-0.00116">
        <ele>1221</ele>
        <time>2021-07-25T06:56:23Z</time>
      </trkpt>
      <trkpt lat="42.81182" lon="-0.00116">
        <ele>1222</ele>
        <time>2021-07-25T06:56:39Z</time>
      </trkpt>
      <trkpt lat="42.8119" lon="-0.00123">
        <ele>1226</ele>
        <time>2021-07-25T06:56:52Z</time>
      </trkpt>
      <trkpt lat="42.81198" lon="-0.0013">
        <ele>1227</ele>
        <time>2021-07-25T06:57:07Z</time>
      </trkpt>
      <trkpt lat="42.81207" lon="-0.00135">
        <ele>1226</ele>
        <time>2021-07-25T06:57:19Z</time>
      </trkpt>
      <trkpt lat="42.81217" lon="-0.00138">
        <ele>1226</ele>
        <time>2021-07-25T06:57:47Z</time>
      </trkpt>
      <trkpt lat="42.81229" lon="-0.00144">
        <ele>1225</ele>
        <time>2021-07-25T06:57:55Z</time>
      </trkpt>
      <trkpt lat="42.81242" lon="-0.00141">
        <ele>1232</ele>
        <time>2021-07-25T06:58:02Z</time>
      </trkpt>
      <trkpt lat="42.81251" lon="-0.00144">
        <ele>1241</ele>
        <time>2021-07-25T06:58:24Z</time>
      </trkpt>
      <trkpt lat="42.8126" lon="-0.00147">
        <ele>1244</ele>
        <time>2021-07-25T06:58:40Z</time>
      </trkpt>
      <trkpt lat="42.81269" lon="-0.00156">
        <ele>1249</ele>
        <time>2021-07-25T06:58:55Z</time>
      </trkpt>
      <trkpt lat="42.81278" lon="-0.0016">
        <ele>1254</ele>
        <time>2021-07-25T06:59:20Z</time>
      </trkpt>
      <trkpt lat="42.81285" lon="-0.0017">
        <ele>1256</ele>
        <time>2021-07-25T06:59:28Z</time>
      </trkpt>
      <trkpt lat="42.81295" lon="-0.00174">
        <ele>1259</ele>
        <time>2021-07-25T06:59:33Z</time>
      </trkpt>
      <trkpt lat="42.81304" lon="-0.00174">
        <ele>1259</ele>
        <time>2021-07-25T06:59:46Z</time>
      </trkpt>
      <trkpt lat="42.81314" lon="-0.00178">
        <ele>1264</ele>
        <time>2021-07-25T07:00:00Z</time>
      </trkpt>
      <trkpt lat="42.81323" lon="-0.00178">
        <ele>1267</ele>
        <time>2021-07-25T07:00:15Z</time>
      </trkpt>
      <trkpt lat="42.81341" lon="-0.00185">
        <ele>1272</ele>
        <time>2021-07-25T07:00:41Z</time>
      </trkpt>
      <trkpt lat="42.81342" lon="-0.00198">
        <ele>1273</ele>
        <time>2021-07-25T07:01:04Z</time>
      </trkpt>
      <trkpt lat="42.81348" lon="-0.00208">
        <ele>1275</ele>
        <time>2021-07-25T07:01:25Z</time>
      </trkpt>
      <trkpt lat="42.81356" lon="-0.00215">
        <ele>1275</ele>
        <time>2021-07-25T07:01:47Z</time>
      </trkpt>
      <trkpt lat="42.81365" lon="-0.00209">
        <ele>1274</ele>
        <time>2021-07-25T07:01:59Z</time>
      </trkpt>
      <trkpt lat="42.81374" lon="-0.00203">
        <ele>1274</ele>
        <time>2021-07-25T07:02:10Z</time>
      </trkpt>
      <trkpt lat="42.81383" lon="-0.00199">
        <ele>1274</ele>
        <time>2021-07-25T07:02:20Z</time>
      </trkpt>
      <trkpt lat="42.8139" lon="-0.00191">
        <ele>1273</ele>
        <time>2021-07-25T07:02:36Z</time>
      </trkpt>
      <trkpt lat="42.81399" lon="-0.00189">
        <ele>1266</ele>
        <time>2021-07-25T07:02:52Z</time>
      </trkpt>
      <trkpt lat="42.81408" lon="-0.00194">
        <ele>1264</ele>
        <time>2021-07-25T07:03:04Z</time>
      </trkpt>
      <trkpt lat="42.81417" lon="-0.00195">
        <ele>1261</ele>
        <time>2021-07-25T07:03:21Z</time>
      </trkpt>
      <trkpt lat="42.81417" lon="-0.00182">
        <ele>1261</ele>
        <time>2021-07-25T07:03:34Z</time>
      </trkpt>
      <trkpt lat="42.81411" lon="-0.00171">
        <ele>1261</ele>
        <time>2021-07-25T07:03:46Z</time>
      </trkpt>
      <trkpt lat="42.81411" lon="-0.00165">
        <ele>1261</ele>
        <time>2021-07-25T07:03:52Z</time>
      </trkpt>
      <trkpt lat="42.81414" lon="-0.00162">
        <ele>1260</ele>
        <time>2021-07-25T07:03:56Z</time>
      </trkpt>
      <trkpt lat="42.81416" lon="-0.00157">
        <ele>1258</ele>
        <time>2021-07-25T07:04:00Z</time>
      </trkpt>
      <trkpt lat="42.81422" lon="-0.00149">
        <ele>1258</ele>
        <time>2021-07-25T07:04:07Z</time>
      </trkpt>
      <trkpt lat="42.81428" lon="-0.00143">
        <ele>1259</ele>
        <time>2021-07-25T07:04:15Z</time>
      </trkpt>
      <trkpt lat="42.81436" lon="-0.00143">
        <ele>1260</ele>
        <time>2021-07-25T07:04:24Z</time>
      </trkpt>
      <trkpt lat="42.81443" lon="-0.00148">
        <ele>1261</ele>
        <time>2021-07-25T07:04:34Z</time>
      </trkpt>
      <trkpt lat="42.81447" lon="-0.00148">
        <ele>1262</ele>
        <time>2021-07-25T07:04:38Z</time>
      </trkpt>
      <trkpt lat="42.81454" lon="-0.0015">
        <ele>1264</ele>
        <time>2021-07-25T07:04:47Z</time>
      </trkpt>
      <trkpt lat="42.81458" lon="-0.0015">
        <ele>1264</ele>
        <time>2021-07-25T07:04:52Z</time>
      </trkpt>
      <trkpt lat="42.81465" lon="-0.00149">
        <ele>1265</ele>
        <time>2021-07-25T07:05:00Z</time>
      </trkpt>
      <trkpt lat="42.81472" lon="-0.00157">
        <ele>1267</ele>
        <time>2021-07-25T07:05:13Z</time>
      </trkpt>
      <trkpt lat="42.81477" lon="-0.00157">
        <ele>1268</ele>
        <time>2021-07-25T07:05:21Z</time>
      </trkpt>
      <trkpt lat="42.81479" lon="-0.00153">
        <ele>1269</ele>
        <time>2021-07-25T07:05:29Z</time>
      </trkpt>
      <trkpt lat="42.81482" lon="-0.0015">
        <ele>1268</ele>
        <time>2021-07-25T07:05:35Z</time>
      </trkpt>
      <trkpt lat="42.81491" lon="-0.00142">
        <ele>1270</ele>
        <time>2021-07-25T07:05:49Z</time>
      </trkpt>
      <trkpt lat="42.81494" lon="-0.00139">
        <ele>1272</ele>
        <time>2021-07-25T07:05:54Z</time>
      </trkpt>
      <trkpt lat="42.81497" lon="-0.00136">
        <ele>1272</ele>
        <time>2021-07-25T07:06:01Z</time>
      </trkpt>
      <trkpt lat="42.81501" lon="-0.00133">
        <ele>1271</ele>
        <time>2021-07-25T07:06:06Z</time>
      </trkpt>
      <trkpt lat="42.81502" lon="-0.00128">
        <ele>1271</ele>
        <time>2021-07-25T07:06:11Z</time>
      </trkpt>
      <trkpt lat="42.81504" lon="-0.00123">
        <ele>1269</ele>
        <time>2021-07-25T07:06:16Z</time>
      </trkpt>
      <trkpt lat="42.81509" lon="-0.00123">
        <ele>1269</ele>
        <time>2021-07-25T07:06:22Z</time>
      </trkpt>
      <trkpt lat="42.8151" lon="-0.00119">
        <ele>1271</ele>
        <time>2021-07-25T07:06:28Z</time>
      </trkpt>
      <trkpt lat="42.81513" lon="-0.00116">
        <ele>1271</ele>
        <time>2021-07-25T07:06:32Z</time>
      </trkpt>
      <trkpt lat="42.81523" lon="-0.00112">
        <ele>1271</ele>
        <time>2021-07-25T07:06:43Z</time>
      </trkpt>
      <trkpt lat="42.81532" lon="-0.00111">
        <ele>1269</ele>
        <time>2021-07-25T07:06:54Z</time>
      </trkpt>
      <trkpt lat="42.81541" lon="-0.00111">
        <ele>1268</ele>
        <time>2021-07-25T07:07:06Z</time>
      </trkpt>
      <trkpt lat="42.81549" lon="-0.00104">
        <ele>1269</ele>
        <time>2021-07-25T07:07:19Z</time>
      </trkpt>
      <trkpt lat="42.81547" lon="-0.00091">
        <ele>1273</ele>
        <time>2021-07-25T07:07:30Z</time>
      </trkpt>
      <trkpt lat="42.81566" lon="-0.00096">
        <ele>1275</ele>
        <time>2021-07-25T07:07:58Z</time>
      </trkpt>
      <trkpt lat="42.81585" lon="-0.00102">
        <ele>1280</ele>
        <time>2021-07-25T07:08:24Z</time>
      </trkpt>
      <trkpt lat="42.81594" lon="-0.00106">
        <ele>1283</ele>
        <time>2021-07-25T07:08:34Z</time>
      </trkpt>
      <trkpt lat="42.81603" lon="-0.00109">
        <ele>1285</ele>
        <time>2021-07-25T07:08:45Z</time>
      </trkpt>
      <trkpt lat="42.81622" lon="-0.00112">
        <ele>1296</ele>
        <time>2021-07-25T07:09:17Z</time>
      </trkpt>
      <trkpt lat="42.81629" lon="-0.00119">
        <ele>1299</ele>
        <time>2021-07-25T07:09:33Z</time>
      </trkpt>
      <trkpt lat="42.81638" lon="-0.00122">
        <ele>1302</ele>
        <time>2021-07-25T07:09:50Z</time>
      </trkpt>
      <trkpt lat="42.81643" lon="-0.00118">
        <ele>1304</ele>
        <time>2021-07-25T07:10:14Z</time>
      </trkpt>
      <trkpt lat="42.81647" lon="-0.00109">
        <ele>1308</ele>
        <time>2021-07-25T07:10:27Z</time>
      </trkpt>
      <trkpt lat="42.8165" lon="-0.00107">
        <ele>1309</ele>
        <time>2021-07-25T07:10:33Z</time>
      </trkpt>
      <trkpt lat="42.81653" lon="-0.00104">
        <ele>1311</ele>
        <time>2021-07-25T07:10:40Z</time>
      </trkpt>
      <trkpt lat="42.81657" lon="-0.00096">
        <ele>1312</ele>
        <time>2021-07-25T07:10:51Z</time>
      </trkpt>
      <trkpt lat="42.8166" lon="-0.00093">
        <ele>1312</ele>
        <time>2021-07-25T07:10:55Z</time>
      </trkpt>
      <trkpt lat="42.81663" lon="-0.00091">
        <ele>1312</ele>
        <time>2021-07-25T07:10:59Z</time>
      </trkpt>
      <trkpt lat="42.81667" lon="-0.00088">
        <ele>1313</ele>
        <time>2021-07-25T07:11:04Z</time>
      </trkpt>
      <trkpt lat="42.81671" lon="-0.00088">
        <ele>1313</ele>
        <time>2021-07-25T07:11:09Z</time>
      </trkpt>
      <trkpt lat="42.81679" lon="-0.00086">
        <ele>1313</ele>
        <time>2021-07-25T07:11:19Z</time>
      </trkpt>
      <trkpt lat="42.81682" lon="-0.00085">
        <ele>1313</ele>
        <time>2021-07-25T07:11:23Z</time>
      </trkpt>
      <trkpt lat="42.81686" lon="-0.00084">
        <ele>1313</ele>
        <time>2021-07-25T07:11:28Z</time>
      </trkpt>
      <trkpt lat="42.81689" lon="-0.00081">
        <ele>1312</ele>
        <time>2021-07-25T07:11:33Z</time>
      </trkpt>
      <trkpt lat="42.81693" lon="-0.00083">
        <ele>1311</ele>
        <time>2021-07-25T07:11:37Z</time>
      </trkpt>
      <trkpt lat="42.81708" lon="-0.00096">
        <ele>1308</ele>
        <time>2021-07-25T07:11:56Z</time>
      </trkpt>
      <trkpt lat="42.81717" lon="-0.001">
        <ele>1309</ele>
        <time>2021-07-25T07:12:09Z</time>
      </trkpt>
      <trkpt lat="42.81726" lon="-0.00104">
        <ele>1311</ele>
        <time>2021-07-25T07:12:22Z</time>
      </trkpt>
      <trkpt lat="42.81735" lon="-0.00102">
        <ele>1317</ele>
        <time>2021-07-25T07:12:33Z</time>
      </trkpt>
      <trkpt lat="42.81745" lon="-0.00102">
        <ele>1317</ele>
        <time>2021-07-25T07:12:46Z</time>
      </trkpt>
      <trkpt lat="42.81753" lon="-0.00107">
        <ele>1321</ele>
        <time>2021-07-25T07:13:06Z</time>
      </trkpt>
      <trkpt lat="42.81757" lon="-0.00107">
        <ele>1324</ele>
        <time>2021-07-25T07:13:13Z</time>
      </trkpt>
      <trkpt lat="42.81759" lon="-0.00103">
        <ele>1324</ele>
        <time>2021-07-25T07:13:18Z</time>
      </trkpt>
      <trkpt lat="42.81761" lon="-0.00098">
        <ele>1323</ele>
        <time>2021-07-25T07:13:26Z</time>
      </trkpt>
      <trkpt lat="42.81765" lon="-0.00097">
        <ele>1323</ele>
        <time>2021-07-25T07:13:32Z</time>
      </trkpt>
      <trkpt lat="42.81767" lon="-0.00093">
        <ele>1323</ele>
        <time>2021-07-25T07:13:37Z</time>
      </trkpt>
      <trkpt lat="42.8177" lon="-0.00084">
        <ele>1327</ele>
        <time>2021-07-25T07:13:48Z</time>
      </trkpt>
      <trkpt lat="42.81773" lon="-0.00081">
        <ele>1328</ele>
        <time>2021-07-25T07:13:53Z</time>
      </trkpt>
      <trkpt lat="42.81775" lon="-0.00077">
        <ele>1327</ele>
        <time>2021-07-25T07:13:59Z</time>
      </trkpt>
      <trkpt lat="42.81777" lon="-0.00073">
        <ele>1327</ele>
        <time>2021-07-25T07:14:04Z</time>
      </trkpt>
      <trkpt lat="42.8178" lon="-0.00069">
        <ele>1330</ele>
        <time>2021-07-25T07:14:11Z</time>
      </trkpt>
      <trkpt lat="42.81789" lon="-0.00073">
        <ele>1331</ele>
        <time>2021-07-25T07:14:24Z</time>
      </trkpt>
      <trkpt lat="42.81796" lon="-0.00081">
        <ele>1334</ele>
        <time>2021-07-25T07:14:41Z</time>
      </trkpt>
      <trkpt lat="42.81805" lon="-0.00077">
        <ele>1336</ele>
        <time>2021-07-25T07:14:56Z</time>
      </trkpt>
      <trkpt lat="42.81812" lon="-0.00067">
        <ele>1337</ele>
        <time>2021-07-25T07:15:19Z</time>
      </trkpt>
      <trkpt lat="42.81806" lon="-0.00053">
        <ele>1343</ele>
        <time>2021-07-25T07:16:27Z</time>
      </trkpt>
      <trkpt lat="42.81807" lon="-0.00037">
        <ele>1350</ele>
        <time>2021-07-25T07:16:38Z</time>
      </trkpt>
      <trkpt lat="42.81815" lon="-0.00011">
        <ele>1362</ele>
        <time>2021-07-25T07:17:04Z</time>
      </trkpt>
      <trkpt lat="42.81823" lon="-2.0E-5">
        <ele>1365</ele>
        <time>2021-07-25T07:17:22Z</time>
      </trkpt>
      <trkpt lat="42.8184" lon="6.0E-5">
        <ele>1370</ele>
        <time>2021-07-25T07:17:56Z</time>
      </trkpt>
      <trkpt lat="42.81847" lon="1.0E-5">
        <ele>1368</ele>
        <time>2021-07-25T07:18:05Z</time>
      </trkpt>
      <trkpt lat="42.81851" lon="0">
        <ele>1367</ele>
        <time>2021-07-25T07:18:10Z</time>
      </trkpt>
      <trkpt lat="42.81854" lon="2.0E-5">
        <ele>1370</ele>
        <time>2021-07-25T07:18:24Z</time>
      </trkpt>
      <trkpt lat="42.81856" lon="6.0E-5">
        <ele>1374</ele>
        <time>2021-07-25T07:18:33Z</time>
      </trkpt>
      <trkpt lat="42.8186" lon="4.0E-5">
        <ele>1374</ele>
        <time>2021-07-25T07:18:37Z</time>
      </trkpt>
      <trkpt lat="42.81883" lon="-0.00013">
        <ele>1367</ele>
        <time>2021-07-25T07:19:08Z</time>
      </trkpt>
      <trkpt lat="42.81888" lon="-0.00015">
        <ele>1367</ele>
        <time>2021-07-25T07:19:13Z</time>
      </trkpt>
      <trkpt lat="42.81894" lon="-0.00013">
        <ele>1368</ele>
        <time>2021-07-25T07:19:19Z</time>
      </trkpt>
      <trkpt lat="42.81899" lon="-0.00011">
        <ele>1371</ele>
        <time>2021-07-25T07:19:23Z</time>
      </trkpt>
      <trkpt lat="42.81909" lon="-0.00012">
        <ele>1373</ele>
        <time>2021-07-25T07:19:32Z</time>
      </trkpt>
      <trkpt lat="42.81919" lon="-0.0001">
        <ele>1365</ele>
        <time>2021-07-25T07:19:43Z</time>
      </trkpt>
      <trkpt lat="42.81929" lon="-6.0E-5">
        <ele>1383</ele>
        <time>2021-07-25T07:19:56Z</time>
      </trkpt>
      <trkpt lat="42.81939" lon="-5.0E-5">
        <ele>1386</ele>
        <time>2021-07-25T07:20:11Z</time>
      </trkpt>
      <trkpt lat="42.81946" lon="-8.0E-5">
        <ele>1385</ele>
        <time>2021-07-25T07:20:21Z</time>
      </trkpt>
      <trkpt lat="42.8195" lon="-9.0E-5">
        <ele>1383</ele>
        <time>2021-07-25T07:20:25Z</time>
      </trkpt>
      <trkpt lat="42.81954" lon="-0.0001">
        <ele>1382</ele>
        <time>2021-07-25T07:20:29Z</time>
      </trkpt>
      <trkpt lat="42.81959" lon="-0.0001">
        <ele>1379</ele>
        <time>2021-07-25T07:20:34Z</time>
      </trkpt>
      <trkpt lat="42.81962" lon="-7.0E-5">
        <ele>1378</ele>
        <time>2021-07-25T07:20:38Z</time>
      </trkpt>
      <trkpt lat="42.81965" lon="-3.0E-5">
        <ele>1378</ele>
        <time>2021-07-25T07:21:02Z</time>
      </trkpt>
      <trkpt lat="42.81968" lon="1.0E-5">
        <ele>1378</ele>
        <time>2021-07-25T07:21:06Z</time>
      </trkpt>
      <trkpt lat="42.81971" lon="3.0E-5">
        <ele>1376</ele>
        <time>2021-07-25T07:21:09Z</time>
      </trkpt>
      <trkpt lat="42.81975" lon="4.0E-5">
        <ele>1376</ele>
        <time>2021-07-25T07:21:13Z</time>
      </trkpt>
      <trkpt lat="42.81979" lon="6.0E-5">
        <ele>1377</ele>
        <time>2021-07-25T07:21:17Z</time>
      </trkpt>
      <trkpt lat="42.81983" lon="6.0E-5">
        <ele>1378</ele>
        <time>2021-07-25T07:21:22Z</time>
      </trkpt>
      <trkpt lat="42.81987" lon="4.0E-5">
        <ele>1378</ele>
        <time>2021-07-25T07:23:20Z</time>
      </trkpt>
      <trkpt lat="42.8199" lon="-1.0E-5">
        <ele>1378</ele>
        <time>2021-07-25T07:23:25Z</time>
      </trkpt>
      <trkpt lat="42.81994" lon="-3.0E-5">
        <ele>1378</ele>
        <time>2021-07-25T07:23:31Z</time>
      </trkpt>
      <trkpt lat="42.81998" lon="-2.0E-5">
        <ele>1378</ele>
        <time>2021-07-25T07:23:36Z</time>
      </trkpt>
      <trkpt lat="42.82006" lon="-2.0E-5">
        <ele>1378</ele>
        <time>2021-07-25T07:23:44Z</time>
      </trkpt>
      <trkpt lat="42.82009" lon="1.0E-5">
        <ele>1377</ele>
        <time>2021-07-25T07:23:49Z</time>
      </trkpt>
      <trkpt lat="42.82012" lon="5.0E-5">
        <ele>1379</ele>
        <time>2021-07-25T07:23:56Z</time>
      </trkpt>
      <trkpt lat="42.82016" lon="7.0E-5">
        <ele>1380</ele>
        <time>2021-07-25T07:24:01Z</time>
      </trkpt>
      <trkpt lat="42.82024" lon="7.0E-5">
        <ele>1383</ele>
        <time>2021-07-25T07:24:12Z</time>
      </trkpt>
      <trkpt lat="42.82027" lon="8.0E-5">
        <ele>1386</ele>
        <time>2021-07-25T07:24:17Z</time>
      </trkpt>
      <trkpt lat="42.82036" lon="0.00011">
        <ele>1389</ele>
        <time>2021-07-25T07:24:37Z</time>
      </trkpt>
      <trkpt lat="42.82046" lon="0.00011">
        <ele>1396</ele>
        <time>2021-07-25T07:24:52Z</time>
      </trkpt>
      <trkpt lat="42.82055" lon="0.00011">
        <ele>1398</ele>
        <time>2021-07-25T07:25:39Z</time>
      </trkpt>
      <trkpt lat="42.82063" lon="0.00013">
        <ele>1401</ele>
        <time>2021-07-25T07:25:50Z</time>
      </trkpt>
      <trkpt lat="42.82066" lon="0.00015">
        <ele>1402</ele>
        <time>2021-07-25T07:25:56Z</time>
      </trkpt>
      <trkpt lat="42.82069" lon="0.00019">
        <ele>1403</ele>
        <time>2021-07-25T07:26:03Z</time>
      </trkpt>
      <trkpt lat="42.82076" lon="0.00024">
        <ele>1407</ele>
        <time>2021-07-25T07:26:14Z</time>
      </trkpt>
      <trkpt lat="42.82079" lon="0.00027">
        <ele>1407</ele>
        <time>2021-07-25T07:26:19Z</time>
      </trkpt>
      <trkpt lat="42.82081" lon="0.00037">
        <ele>1410</ele>
        <time>2021-07-25T07:26:30Z</time>
      </trkpt>
      <trkpt lat="42.82084" lon="0.0004">
        <ele>1412</ele>
        <time>2021-07-25T07:26:35Z</time>
      </trkpt>
      <trkpt lat="42.82087" lon="0.00041">
        <ele>1412</ele>
        <time>2021-07-25T07:27:08Z</time>
      </trkpt>
      <trkpt lat="42.82091" lon="0.00041">
        <ele>1410</ele>
        <time>2021-07-25T07:27:18Z</time>
      </trkpt>
      <trkpt lat="42.82095" lon="0.00042">
        <ele>1410</ele>
        <time>2021-07-25T07:27:22Z</time>
      </trkpt>
      <trkpt lat="42.82112" lon="0.00043">
        <ele>1410</ele>
        <time>2021-07-25T07:27:39Z</time>
      </trkpt>
      <trkpt lat="42.82124" lon="0.00041">
        <ele>1412</ele>
        <time>2021-07-25T07:27:52Z</time>
      </trkpt>
      <trkpt lat="42.82127" lon="0.00039">
        <ele>1413</ele>
        <time>2021-07-25T07:27:57Z</time>
      </trkpt>
      <trkpt lat="42.82154" lon="0.00034">
        <ele>1414</ele>
        <time>2021-07-25T07:28:27Z</time>
      </trkpt>
      <trkpt lat="42.82156" lon="0.0003">
        <ele>1413</ele>
        <time>2021-07-25T07:28:31Z</time>
      </trkpt>
      <trkpt lat="42.82159" lon="0.00026">
        <ele>1412</ele>
        <time>2021-07-25T07:28:47Z</time>
      </trkpt>
      <trkpt lat="42.82162" lon="0.00024">
        <ele>1411</ele>
        <time>2021-07-25T07:28:56Z</time>
      </trkpt>
      <trkpt lat="42.82166" lon="0.00025">
        <ele>1410</ele>
        <time>2021-07-25T07:29:01Z</time>
      </trkpt>
      <trkpt lat="42.82172" lon="0.00032">
        <ele>1410</ele>
        <time>2021-07-25T07:29:12Z</time>
      </trkpt>
      <trkpt lat="42.82174" lon="0.00037">
        <ele>1410</ele>
        <time>2021-07-25T07:29:48Z</time>
      </trkpt>
      <trkpt lat="42.82176" lon="0.0004">
        <ele>1410</ele>
        <time>2021-07-25T07:29:53Z</time>
      </trkpt>
      <trkpt lat="42.82179" lon="0.00043">
        <ele>1410</ele>
        <time>2021-07-25T07:29:59Z</time>
      </trkpt>
      <trkpt lat="42.82182" lon="0.00052">
        <ele>1407</ele>
        <time>2021-07-25T07:30:14Z</time>
      </trkpt>
      <trkpt lat="42.82182" lon="0.00057">
        <ele>1404</ele>
        <time>2021-07-25T07:30:22Z</time>
      </trkpt>
      <trkpt lat="42.82177" lon="0.00078">
        <ele>1400</ele>
        <time>2021-07-25T07:30:50Z</time>
      </trkpt>
      <trkpt lat="42.82171" lon="0.00091">
        <ele>1399</ele>
        <time>2021-07-25T07:31:03Z</time>
      </trkpt>
      <trkpt lat="42.82166" lon="0.00098">
        <ele>1398</ele>
        <time>2021-07-25T07:31:12Z</time>
      </trkpt>
      <trkpt lat="42.82164" lon="0.00104">
        <ele>1399</ele>
        <time>2021-07-25T07:31:16Z</time>
      </trkpt>
      <trkpt lat="42.82163" lon="0.0011">
        <ele>1399</ele>
        <time>2021-07-25T07:31:20Z</time>
      </trkpt>
      <trkpt lat="42.82165" lon="0.00116">
        <ele>1400</ele>
        <time>2021-07-25T07:31:25Z</time>
      </trkpt>
      <trkpt lat="42.82161" lon="0.00128">
        <ele>1398</ele>
        <time>2021-07-25T07:31:37Z</time>
      </trkpt>
      <trkpt lat="42.82167" lon="0.00152">
        <ele>1395</ele>
        <time>2021-07-25T07:32:05Z</time>
      </trkpt>
      <trkpt lat="42.82187" lon="0.00166">
        <ele>1388</ele>
        <time>2021-07-25T07:32:30Z</time>
      </trkpt>
      <trkpt lat="42.82193" lon="0.00173">
        <ele>1385</ele>
        <time>2021-07-25T07:32:41Z</time>
      </trkpt>
      <trkpt lat="42.82197" lon="0.00176">
        <ele>1384</ele>
        <time>2021-07-25T07:32:47Z</time>
      </trkpt>
      <trkpt lat="42.82199" lon="0.0018">
        <ele>1380</ele>
        <time>2021-07-25T07:32:51Z</time>
      </trkpt>
      <trkpt lat="42.82202" lon="0.0019">
        <ele>1379</ele>
        <time>2021-07-25T07:32:58Z</time>
      </trkpt>
      <trkpt lat="42.82215" lon="0.00204">
        <ele>1378</ele>
        <time>2021-07-25T07:33:10Z</time>
      </trkpt>
      <trkpt lat="42.82219" lon="0.00206">
        <ele>1376</ele>
        <time>2021-07-25T07:33:14Z</time>
      </trkpt>
      <trkpt lat="42.82222" lon="0.00206">
        <ele>1375</ele>
        <time>2021-07-25T07:33:17Z</time>
      </trkpt>
      <trkpt lat="42.82227" lon="0.00207">
        <ele>1375</ele>
        <time>2021-07-25T07:33:23Z</time>
      </trkpt>
      <trkpt lat="42.82231" lon="0.00215">
        <ele>1372</ele>
        <time>2021-07-25T07:36:48Z</time>
      </trkpt>
      <trkpt lat="42.82235" lon="0.00215">
        <ele>1371</ele>
        <time>2021-07-25T07:36:52Z</time>
      </trkpt>
      <trkpt lat="42.82243" lon="0.00215">
        <ele>1370</ele>
        <time>2021-07-25T07:37:01Z</time>
      </trkpt>
      <trkpt lat="42.82248" lon="0.00217">
        <ele>1370</ele>
        <time>2021-07-25T07:37:06Z</time>
      </trkpt>
      <trkpt lat="42.82259" lon="0.00215">
        <ele>1370</ele>
        <time>2021-07-25T07:37:17Z</time>
      </trkpt>
      <trkpt lat="42.82273" lon="0.0022">
        <ele>1367</ele>
        <time>2021-07-25T07:37:32Z</time>
      </trkpt>
      <trkpt lat="42.82274" lon="0.00222">
        <ele>1365</ele>
        <time>2021-07-25T07:37:44Z</time>
      </trkpt>
      <trkpt lat="42.82272" lon="0.00226">
        <ele>1364</ele>
        <time>2021-07-25T07:37:52Z</time>
      </trkpt>
      <trkpt lat="42.82272" lon="0.00232">
        <ele>1359</ele>
        <time>2021-07-25T07:37:58Z</time>
      </trkpt>
      <trkpt lat="42.82273" lon="0.00237">
        <ele>1358</ele>
        <time>2021-07-25T07:38:02Z</time>
      </trkpt>
      <trkpt lat="42.82276" lon="0.00241">
        <ele>1358</ele>
        <time>2021-07-25T07:38:06Z</time>
      </trkpt>
      <trkpt lat="42.82286" lon="0.00241">
        <ele>1355</ele>
        <time>2021-07-25T07:38:23Z</time>
      </trkpt>
      <trkpt lat="42.82292" lon="0.0025">
        <ele>1351</ele>
        <time>2021-07-25T07:38:36Z</time>
      </trkpt>
      <trkpt lat="42.82302" lon="0.00252">
        <ele>1348</ele>
        <time>2021-07-25T07:38:54Z</time>
      </trkpt>
      <trkpt lat="42.82309" lon="0.00245">
        <ele>1341</ele>
        <time>2021-07-25T07:39:03Z</time>
      </trkpt>
      <trkpt lat="42.82318" lon="0.00242">
        <ele>1339</ele>
        <time>2021-07-25T07:39:12Z</time>
      </trkpt>
      <trkpt lat="42.82327" lon="0.00247">
        <ele>1336</ele>
        <time>2021-07-25T07:39:25Z</time>
      </trkpt>
      <trkpt lat="42.82336" lon="0.00244">
        <ele>1335</ele>
        <time>2021-07-25T07:39:30Z</time>
      </trkpt>
      <trkpt lat="42.82345" lon="0.00241">
        <ele>1330</ele>
        <time>2021-07-25T07:39:37Z</time>
      </trkpt>
      <trkpt lat="42.82367" lon="0.00235">
        <ele>1325</ele>
        <time>2021-07-25T07:39:49Z</time>
      </trkpt>
      <trkpt lat="42.82377" lon="0.00233">
        <ele>1324</ele>
        <time>2021-07-25T07:39:54Z</time>
      </trkpt>
      <trkpt lat="42.82386" lon="0.00229">
        <ele>1320</ele>
        <time>2021-07-25T07:39:58Z</time>
      </trkpt>
      <trkpt lat="42.82395" lon="0.00223">
        <ele>1319</ele>
        <time>2021-07-25T07:40:03Z</time>
      </trkpt>
      <trkpt lat="42.82405" lon="0.00223">
        <ele>1316</ele>
        <time>2021-07-25T07:40:08Z</time>
      </trkpt>
      <trkpt lat="42.82413" lon="0.00216">
        <ele>1313</ele>
        <time>2021-07-25T07:40:19Z</time>
      </trkpt>
      <trkpt lat="42.82422" lon="0.0021">
        <ele>1324</ele>
        <time>2021-07-25T07:40:26Z</time>
      </trkpt>
      <trkpt lat="42.82429" lon="0.00218">
        <ele>1318</ele>
        <time>2021-07-25T07:40:35Z</time>
      </trkpt>
      <trkpt lat="42.82438" lon="0.00191">
        <ele>1295</ele>
        <time>2021-07-25T07:41:04Z</time>
      </trkpt>
      <trkpt lat="42.82447" lon="0.00185">
        <ele>1292</ele>
        <time>2021-07-25T07:41:11Z</time>
      </trkpt>
      <trkpt lat="42.82455" lon="0.00179">
        <ele>1289</ele>
        <time>2021-07-25T07:41:21Z</time>
      </trkpt>
      <trkpt lat="42.82464" lon="0.00173">
        <ele>1286</ele>
        <time>2021-07-25T07:41:30Z</time>
      </trkpt>
      <trkpt lat="42.82474" lon="0.00167">
        <ele>1282</ele>
        <time>2021-07-25T07:41:36Z</time>
      </trkpt>
      <trkpt lat="42.82483" lon="0.0016">
        <ele>1280</ele>
        <time>2021-07-25T07:41:45Z</time>
      </trkpt>
      <trkpt lat="42.82503" lon="0.00152">
        <ele>1275</ele>
        <time>2021-07-25T07:41:57Z</time>
      </trkpt>
      <trkpt lat="42.82513" lon="0.00146">
        <ele>1271</ele>
        <time>2021-07-25T07:42:04Z</time>
      </trkpt>
      <trkpt lat="42.82521" lon="0.00137">
        <ele>1268</ele>
        <time>2021-07-25T07:42:11Z</time>
      </trkpt>
      <trkpt lat="42.82536" lon="0.00119">
        <ele>1260</ele>
        <time>2021-07-25T07:42:26Z</time>
      </trkpt>
      <trkpt lat="42.82546" lon="0.00115">
        <ele>1251</ele>
        <time>2021-07-25T07:42:42Z</time>
      </trkpt>
      <trkpt lat="42.8255" lon="0.00102">
        <ele>1246</ele>
        <time>2021-07-25T07:43:00Z</time>
      </trkpt>
      <trkpt lat="42.82559" lon="0.00096">
        <ele>1237</ele>
        <time>2021-07-25T07:43:10Z</time>
      </trkpt>
      <trkpt lat="42.82569" lon="0.00093">
        <ele>1236</ele>
        <time>2021-07-25T07:43:17Z</time>
      </trkpt>
      <trkpt lat="42.82578" lon="0.00089">
        <ele>1231</ele>
        <time>2021-07-25T07:43:27Z</time>
      </trkpt>
      <trkpt lat="42.82588" lon="0.00084">
        <ele>1229</ele>
        <time>2021-07-25T07:43:34Z</time>
      </trkpt>
      <trkpt lat="42.82597" lon="0.00075">
        <ele>1224</ele>
        <time>2021-07-25T07:43:40Z</time>
      </trkpt>
      <trkpt lat="42.82603" lon="0.00063">
        <ele>1222</ele>
        <time>2021-07-25T07:43:47Z</time>
      </trkpt>
      <trkpt lat="42.82612" lon="0.00056">
        <ele>1218</ele>
        <time>2021-07-25T07:43:56Z</time>
      </trkpt>
      <trkpt lat="42.82623" lon="0.00053">
        <ele>1218</ele>
        <time>2021-07-25T07:44:01Z</time>
      </trkpt>
      <trkpt lat="42.82649" lon="0.00036">
        <ele>1208</ele>
        <time>2021-07-25T07:44:18Z</time>
      </trkpt>
      <trkpt lat="42.82656" lon="0.00027">
        <ele>1208</ele>
        <time>2021-07-25T07:45:15Z</time>
      </trkpt>
      <trkpt lat="42.82666" lon="0.00023">
        <ele>1202</ele>
        <time>2021-07-25T07:45:27Z</time>
      </trkpt>
      <trkpt lat="42.82673" lon="0.00016">
        <ele>1200</ele>
        <time>2021-07-25T07:45:36Z</time>
      </trkpt>
      <trkpt lat="42.82691" lon="0.00011">
        <ele>1196</ele>
        <time>2021-07-25T07:45:51Z</time>
      </trkpt>
      <trkpt lat="42.82701" lon="0.00011">
        <ele>1193</ele>
        <time>2021-07-25T07:45:58Z</time>
      </trkpt>
      <trkpt lat="42.82707" lon="1.0E-5">
        <ele>1191</ele>
        <time>2021-07-25T07:46:03Z</time>
      </trkpt>
      <trkpt lat="42.82713" lon="-0.00011">
        <ele>1187</ele>
        <time>2021-07-25T07:46:08Z</time>
      </trkpt>
      <trkpt lat="42.8272" lon="-0.0002">
        <ele>1185</ele>
        <time>2021-07-25T07:46:12Z</time>
      </trkpt>
      <trkpt lat="42.82739" lon="-0.00028">
        <ele>1180</ele>
        <time>2021-07-25T07:46:20Z</time>
      </trkpt>
      <trkpt lat="42.82745" lon="-0.00038">
        <ele>1175</ele>
        <time>2021-07-25T07:46:34Z</time>
      </trkpt>
      <trkpt lat="42.82752" lon="-0.00048">
        <ele>1173</ele>
        <time>2021-07-25T07:46:38Z</time>
      </trkpt>
      <trkpt lat="42.82761" lon="-0.00056">
        <ele>1167</ele>
        <time>2021-07-25T07:46:42Z</time>
      </trkpt>
      <trkpt lat="42.82767" lon="-0.00067">
        <ele>1166</ele>
        <time>2021-07-25T07:46:48Z</time>
      </trkpt>
      <trkpt lat="42.82771" lon="-0.00079">
        <ele>1158</ele>
        <time>2021-07-25T07:46:56Z</time>
      </trkpt>
      <trkpt lat="42.82792" lon="-0.0009">
        <ele>1157</ele>
        <time>2021-07-25T07:47:05Z</time>
      </trkpt>
      <trkpt lat="42.82802" lon="-0.00094">
        <ele>1157</ele>
        <time>2021-07-25T07:47:11Z</time>
      </trkpt>
      <trkpt lat="42.82813" lon="-0.00099">
        <ele>1155</ele>
        <time>2021-07-25T07:47:17Z</time>
      </trkpt>
      <trkpt lat="42.82833" lon="-0.00108">
        <ele>1153</ele>
        <time>2021-07-25T07:47:28Z</time>
      </trkpt>
      <trkpt lat="42.82843" lon="-0.00116">
        <ele>1150</ele>
        <time>2021-07-25T07:47:34Z</time>
      </trkpt>
      <trkpt lat="42.82851" lon="-0.00121">
        <ele>1148</ele>
        <time>2021-07-25T07:47:44Z</time>
      </trkpt>
      <trkpt lat="42.82861" lon="-0.00119">
        <ele>1145</ele>
        <time>2021-07-25T07:47:52Z</time>
      </trkpt>
      <trkpt lat="42.82872" lon="-0.00114">
        <ele>1144</ele>
        <time>2021-07-25T07:48:00Z</time>
      </trkpt>
      <trkpt lat="42.82883" lon="-0.00118">
        <ele>1143</ele>
        <time>2021-07-25T07:48:05Z</time>
      </trkpt>
      <trkpt lat="42.82908" lon="-0.00137">
        <ele>1127</ele>
        <time>2021-07-25T07:48:32Z</time>
      </trkpt>
      <trkpt lat="42.82918" lon="-0.0014">
        <ele>1119</ele>
        <time>2021-07-25T07:48:42Z</time>
      </trkpt>
      <trkpt lat="42.82923" lon="-0.00152">
        <ele>1118</ele>
        <time>2021-07-25T07:48:48Z</time>
      </trkpt>
      <trkpt lat="42.82927" lon="-0.00164">
        <ele>1112</ele>
        <time>2021-07-25T07:48:58Z</time>
      </trkpt>
      <trkpt lat="42.82934" lon="-0.00173">
        <ele>1139</ele>
        <time>2021-07-25T07:49:11Z</time>
      </trkpt>
      <trkpt lat="42.82944" lon="-0.00177">
        <ele>1116</ele>
        <time>2021-07-25T07:49:19Z</time>
      </trkpt>
      <trkpt lat="42.82952" lon="-0.00185">
        <ele>1112</ele>
        <time>2021-07-25T07:49:27Z</time>
      </trkpt>
      <trkpt lat="42.82959" lon="-0.00196">
        <ele>1108</ele>
        <time>2021-07-25T07:49:37Z</time>
      </trkpt>
      <trkpt lat="42.82969" lon="-0.00201">
        <ele>1107</ele>
        <time>2021-07-25T07:49:42Z</time>
      </trkpt>
      <trkpt lat="42.82975" lon="-0.00211">
        <ele>1098</ele>
        <time>2021-07-25T07:49:50Z</time>
      </trkpt>
      <trkpt lat="42.82983" lon="-0.00217">
        <ele>1094</ele>
        <time>2021-07-25T07:50:03Z</time>
      </trkpt>
      <trkpt lat="42.82991" lon="-0.00226">
        <ele>1092</ele>
        <time>2021-07-25T07:51:17Z</time>
      </trkpt>
      <trkpt lat="42.83001" lon="-0.00226">
        <ele>1091</ele>
        <time>2021-07-25T07:51:24Z</time>
      </trkpt>
      <trkpt lat="42.83011" lon="-0.00224">
        <ele>1087</ele>
        <time>2021-07-25T07:51:45Z</time>
      </trkpt>
      <trkpt lat="42.83021" lon="-0.0023">
        <ele>1087</ele>
        <time>2021-07-25T07:51:51Z</time>
      </trkpt>
      <trkpt lat="42.83029" lon="-0.00238">
        <ele>1084</ele>
        <time>2021-07-25T07:52:01Z</time>
      </trkpt>
      <trkpt lat="42.83036" lon="-0.00246">
        <ele>1083</ele>
        <time>2021-07-25T07:52:10Z</time>
      </trkpt>
      <trkpt lat="42.83041" lon="-0.00257">
        <ele>1080</ele>
        <time>2021-07-25T07:52:20Z</time>
      </trkpt>
      <trkpt lat="42.83059" lon="-0.00264">
        <ele>1078</ele>
        <time>2021-07-25T07:52:38Z</time>
      </trkpt>
      <trkpt lat="42.83069" lon="-0.0027">
        <ele>1085</ele>
        <time>2021-07-25T07:54:03Z</time>
      </trkpt>
      <trkpt lat="42.83073" lon="-0.00272">
        <ele>1084</ele>
        <time>2021-07-25T07:54:06Z</time>
      </trkpt>
      <trkpt lat="42.83076" lon="-0.00276">
        <ele>1084</ele>
        <time>2021-07-25T07:54:09Z</time>
      </trkpt>
      <trkpt lat="42.83086" lon="-0.00284">
        <ele>1081</ele>
        <time>2021-07-25T07:54:19Z</time>
      </trkpt>
      <trkpt lat="42.83088" lon="-0.00288">
        <ele>1081</ele>
        <time>2021-07-25T07:54:23Z</time>
      </trkpt>
      <trkpt lat="42.8309" lon="-0.00292">
        <ele>1080</ele>
        <time>2021-07-25T07:54:27Z</time>
      </trkpt>
      <trkpt lat="42.83093" lon="-0.00304">
        <ele>1079</ele>
        <time>2021-07-25T07:54:35Z</time>
      </trkpt>
      <trkpt lat="42.83095" lon="-0.00308">
        <ele>1078</ele>
        <time>2021-07-25T07:54:39Z</time>
      </trkpt>
      <trkpt lat="42.83097" lon="-0.00312">
        <ele>1078</ele>
        <time>2021-07-25T07:54:52Z</time>
      </trkpt>
      <trkpt lat="42.83101" lon="-0.00315">
        <ele>1080</ele>
        <time>2021-07-25T07:54:58Z</time>
      </trkpt>
      <trkpt lat="42.83102" lon="-0.00321">
        <ele>1080</ele>
        <time>2021-07-25T07:55:01Z</time>
      </trkpt>
      <trkpt lat="42.83105" lon="-0.00326">
        <ele>1081</ele>
        <time>2021-07-25T07:55:04Z</time>
      </trkpt>
      <trkpt lat="42.83115" lon="-0.00314">
        <ele>1080</ele>
        <time>2021-07-25T07:55:14Z</time>
      </trkpt>
      <trkpt lat="42.83119" lon="-0.00302">
        <ele>1077</ele>
        <time>2021-07-25T07:55:19Z</time>
      </trkpt>
      <trkpt lat="42.83124" lon="-0.00289">
        <ele>1070</ele>
        <time>2021-07-25T07:55:27Z</time>
      </trkpt>
      <trkpt lat="42.83133" lon="-0.00286">
        <ele>1069</ele>
        <time>2021-07-25T07:55:38Z</time>
      </trkpt>
      <trkpt lat="42.83138" lon="-0.003">
        <ele>1069</ele>
        <time>2021-07-25T07:55:43Z</time>
      </trkpt>
      <trkpt lat="42.83134" lon="-0.00313">
        <ele>1068</ele>
        <time>2021-07-25T07:55:49Z</time>
      </trkpt>
      <trkpt lat="42.83147" lon="-0.00317">
        <ele>1061</ele>
        <time>2021-07-25T07:56:29Z</time>
      </trkpt>
      <trkpt lat="42.83156" lon="-0.00328">
        <ele>1053</ele>
        <time>2021-07-25T07:56:36Z</time>
      </trkpt>
      <trkpt lat="42.83163" lon="-0.00315">
        <ele>1048</ele>
        <time>2021-07-25T07:56:41Z</time>
      </trkpt>
      <trkpt lat="42.83162" lon="-0.00301">
        <ele>1041</ele>
        <time>2021-07-25T07:56:49Z</time>
      </trkpt>
      <trkpt lat="42.83172" lon="-0.00284">
        <ele>1037</ele>
        <time>2021-07-25T07:57:02Z</time>
      </trkpt>
      <trkpt lat="42.83179" lon="-0.0027">
        <ele>1037</ele>
        <time>2021-07-25T07:57:11Z</time>
      </trkpt>
      <trkpt lat="42.83189" lon="-0.0027">
        <ele>1039</ele>
        <time>2021-07-25T07:57:20Z</time>
      </trkpt>
      <trkpt lat="42.83195" lon="-0.00281">
        <ele>1025</ele>
        <time>2021-07-25T07:57:27Z</time>
      </trkpt>
      <trkpt lat="42.83198" lon="-0.00296">
        <ele>1021</ele>
        <time>2021-07-25T07:57:43Z</time>
      </trkpt>
      <trkpt lat="42.83198" lon="-0.00311">
        <ele>1014</ele>
        <time>2021-07-25T07:57:53Z</time>
      </trkpt>
      <trkpt lat="42.83207" lon="-0.0032">
        <ele>1007</ele>
        <time>2021-07-25T07:58:55Z</time>
      </trkpt>
      <trkpt lat="42.83219" lon="-0.00323">
        <ele>995</ele>
        <time>2021-07-25T07:59:47Z</time>
      </trkpt>
      <trkpt lat="42.83226" lon="-0.00312">
        <ele>996</ele>
        <time>2021-07-25T07:59:57Z</time>
      </trkpt>
      <trkpt lat="42.83237" lon="-0.00315">
        <ele>997</ele>
        <time>2021-07-25T08:00:06Z</time>
      </trkpt>
      <trkpt lat="42.83245" lon="-0.00321">
        <ele>993</ele>
        <time>2021-07-25T08:00:12Z</time>
      </trkpt>
      <trkpt lat="42.83255" lon="-0.00322">
        <ele>984</ele>
        <time>2021-07-25T08:00:20Z</time>
      </trkpt>
      <trkpt lat="42.83264" lon="-0.00327">
        <ele>982</ele>
        <time>2021-07-25T08:00:31Z</time>
      </trkpt>
      <trkpt lat="42.83293" lon="-0.00326">
        <ele>971</ele>
        <time>2021-07-25T08:00:58Z</time>
      </trkpt>
      <trkpt lat="42.83303" lon="-0.00327">
        <ele>969</ele>
        <time>2021-07-25T08:01:08Z</time>
      </trkpt>
      <trkpt lat="42.83312" lon="-0.00333">
        <ele>966</ele>
        <time>2021-07-25T08:01:18Z</time>
      </trkpt>
      <trkpt lat="42.83321" lon="-0.0034">
        <ele>961</ele>
        <time>2021-07-25T08:01:25Z</time>
      </trkpt>
      <trkpt lat="42.83331" lon="-0.0034">
        <ele>958</ele>
        <time>2021-07-25T08:01:32Z</time>
      </trkpt>
      <trkpt lat="42.83351" lon="-0.00346">
        <ele>954</ele>
        <time>2021-07-25T08:02:08Z</time>
      </trkpt>
      <trkpt lat="42.83358" lon="-0.00355">
        <ele>952</ele>
        <time>2021-07-25T08:02:18Z</time>
      </trkpt>
      <trkpt lat="42.83366" lon="-0.00365">
        <ele>946</ele>
        <time>2021-07-25T08:02:28Z</time>
      </trkpt>
      <trkpt lat="42.83376" lon="-0.00367">
        <ele>945</ele>
        <time>2021-07-25T08:02:47Z</time>
      </trkpt>
      <trkpt lat="42.83394" lon="-0.00365">
        <ele>944</ele>
        <time>2021-07-25T08:03:04Z</time>
      </trkpt>
      <trkpt lat="42.83413" lon="-0.00376">
        <ele>940</ele>
        <time>2021-07-25T08:03:22Z</time>
      </trkpt>
      <trkpt lat="42.83423" lon="-0.00376">
        <ele>940</ele>
        <time>2021-07-25T08:03:28Z</time>
      </trkpt>
      <trkpt lat="42.83433" lon="-0.00378">
        <ele>937</ele>
        <time>2021-07-25T08:03:33Z</time>
      </trkpt>
      <trkpt lat="42.83443" lon="-0.0038">
        <ele>935</ele>
        <time>2021-07-25T08:03:38Z</time>
      </trkpt>
      <trkpt lat="42.83453" lon="-0.00374">
        <ele>933</ele>
        <time>2021-07-25T08:03:46Z</time>
      </trkpt>
      <trkpt lat="42.83454" lon="-0.00361">
        <ele>932</ele>
        <time>2021-07-25T08:03:52Z</time>
      </trkpt>
      <trkpt lat="42.83462" lon="-0.00349">
        <ele>925</ele>
        <time>2021-07-25T08:04:13Z</time>
      </trkpt>
      <trkpt lat="42.83482" lon="-0.00351">
        <ele>917</ele>
        <time>2021-07-25T08:04:30Z</time>
      </trkpt>
      <trkpt lat="42.83491" lon="-0.00348">
        <ele>915</ele>
        <time>2021-07-25T08:04:36Z</time>
      </trkpt>
      <trkpt lat="42.83501" lon="-0.00344">
        <ele>912</ele>
        <time>2021-07-25T08:04:43Z</time>
      </trkpt>
      <trkpt lat="42.8351" lon="-0.00344">
        <ele>909</ele>
        <time>2021-07-25T08:04:49Z</time>
      </trkpt>
      <trkpt lat="42.83522" lon="-0.00348">
        <ele>903</ele>
        <time>2021-07-25T08:04:55Z</time>
      </trkpt>
      <trkpt lat="42.83531" lon="-0.00356">
        <ele>898</ele>
        <time>2021-07-25T08:05:00Z</time>
      </trkpt>
      <trkpt lat="42.83541" lon="-0.0036">
        <ele>892</ele>
        <time>2021-07-25T08:05:06Z</time>
      </trkpt>
      <trkpt lat="42.8355" lon="-0.00368">
        <ele>889</ele>
        <time>2021-07-25T08:05:12Z</time>
      </trkpt>
      <trkpt lat="42.83559" lon="-0.00367">
        <ele>885</ele>
        <time>2021-07-25T08:05:25Z</time>
      </trkpt>
      <trkpt lat="42.83568" lon="-0.00369">
        <ele>881</ele>
        <time>2021-07-25T08:05:39Z</time>
      </trkpt>
      <trkpt lat="42.83577" lon="-0.00362">
        <ele>876</ele>
        <time>2021-07-25T08:05:51Z</time>
      </trkpt>
      <trkpt lat="42.83586" lon="-0.00362">
        <ele>874</ele>
        <time>2021-07-25T08:05:59Z</time>
      </trkpt>
      <trkpt lat="42.83595" lon="-0.00356">
        <ele>872</ele>
        <time>2021-07-25T08:06:17Z</time>
      </trkpt>
      <trkpt lat="42.83606" lon="-0.00357">
        <ele>867</ele>
        <time>2021-07-25T08:06:27Z</time>
      </trkpt>
      <trkpt lat="42.83616" lon="-0.00357">
        <ele>867</ele>
        <time>2021-07-25T08:06:35Z</time>
      </trkpt>
      <trkpt lat="42.83625" lon="-0.00356">
        <ele>859</ele>
        <time>2021-07-25T08:06:43Z</time>
      </trkpt>
      <trkpt lat="42.83635" lon="-0.00352">
        <ele>856</ele>
        <time>2021-07-25T08:06:53Z</time>
      </trkpt>
      <trkpt lat="42.83646" lon="-0.00353">
        <ele>854</ele>
        <time>2021-07-25T08:07:03Z</time>
      </trkpt>
      <trkpt lat="42.83653" lon="-0.00363">
        <ele>851</ele>
        <time>2021-07-25T08:07:15Z</time>
      </trkpt>
      <trkpt lat="42.83665" lon="-0.00384">
        <ele>847</ele>
        <time>2021-07-25T08:07:33Z</time>
      </trkpt>
      <trkpt lat="42.83672" lon="-0.00393">
        <ele>847</ele>
        <time>2021-07-25T08:07:41Z</time>
      </trkpt>
      <trkpt lat="42.83677" lon="-0.00405">
        <ele>847</ele>
        <time>2021-07-25T08:07:49Z</time>
      </trkpt>
      <trkpt lat="42.83704" lon="-0.00426">
        <ele>846</ele>
        <time>2021-07-25T08:08:16Z</time>
      </trkpt>
      <trkpt lat="42.83706" lon="-0.00439">
        <ele>846</ele>
        <time>2021-07-25T08:08:37Z</time>
      </trkpt>
      <trkpt lat="42.83709" lon="-0.00452">
        <ele>845</ele>
        <time>2021-07-25T08:08:48Z</time>
      </trkpt>
      <trkpt lat="42.83713" lon="-0.00465">
        <ele>841</ele>
        <time>2021-07-25T08:08:55Z</time>
      </trkpt>
      <trkpt lat="42.83716" lon="-0.00479">
        <ele>840</ele>
        <time>2021-07-25T08:09:03Z</time>
      </trkpt>
      <trkpt lat="42.83726" lon="-0.00502">
        <ele>836</ele>
        <time>2021-07-25T08:09:17Z</time>
      </trkpt>
      <trkpt lat="42.8373" lon="-0.00514">
        <ele>832</ele>
        <time>2021-07-25T08:09:24Z</time>
      </trkpt>
      <trkpt lat="42.83736" lon="-0.00526">
        <ele>831</ele>
        <time>2021-07-25T08:09:33Z</time>
      </trkpt>
      <trkpt lat="42.83739" lon="-0.0054">
        <ele>835</ele>
        <time>2021-07-25T08:09:43Z</time>
      </trkpt>
      <trkpt lat="42.83745" lon="-0.00551">
        <ele>834</ele>
        <time>2021-07-25T08:09:52Z</time>
      </trkpt>
      <trkpt lat="42.83764" lon="-0.00562">
        <ele>838</ele>
        <time>2021-07-25T08:10:06Z</time>
      </trkpt>
      <trkpt lat="42.83785" lon="-0.00568">
        <ele>839</ele>
        <time>2021-07-25T08:10:19Z</time>
      </trkpt>
      <trkpt lat="42.83793" lon="-0.00575">
        <ele>842</ele>
        <time>2021-07-25T08:10:28Z</time>
      </trkpt>
      <trkpt lat="42.83811" lon="-0.00587">
        <ele>847</ele>
        <time>2021-07-25T08:10:43Z</time>
      </trkpt>
      <trkpt lat="42.83823" lon="-0.00589">
        <ele>849</ele>
        <time>2021-07-25T08:10:55Z</time>
      </trkpt>
      <trkpt lat="42.83835" lon="-0.00593">
        <ele>856</ele>
        <time>2021-07-25T08:11:05Z</time>
      </trkpt>
      <trkpt lat="42.83858" lon="-0.00597">
        <ele>860</ele>
        <time>2021-07-25T08:11:24Z</time>
      </trkpt>
      <trkpt lat="42.83865" lon="-0.00609">
        <ele>851</ele>
        <time>2021-07-25T08:11:31Z</time>
      </trkpt>
      <trkpt lat="42.83873" lon="-0.0062">
        <ele>850</ele>
        <time>2021-07-25T08:11:37Z</time>
      </trkpt>
      <trkpt lat="42.83889" lon="-0.00639">
        <ele>846</ele>
        <time>2021-07-25T08:11:50Z</time>
      </trkpt>
      <trkpt lat="42.83898" lon="-0.00646">
        <ele>842</ele>
        <time>2021-07-25T08:11:57Z</time>
      </trkpt>
      <trkpt lat="42.83906" lon="-0.00654">
        <ele>841</ele>
        <time>2021-07-25T08:12:03Z</time>
      </trkpt>
      <trkpt lat="42.83909" lon="-0.00668">
        <ele>840</ele>
        <time>2021-07-25T08:12:10Z</time>
      </trkpt>
      <trkpt lat="42.83908" lon="-0.00681">
        <ele>842</ele>
        <time>2021-07-25T08:12:17Z</time>
      </trkpt>
      <trkpt lat="42.83909" lon="-0.00695">
        <ele>845</ele>
        <time>2021-07-25T08:12:25Z</time>
      </trkpt>
      <trkpt lat="42.83933" lon="-0.00719">
        <ele>847</ele>
        <time>2021-07-25T08:12:46Z</time>
      </trkpt>
      <trkpt lat="42.83948" lon="-0.00736">
        <ele>845</ele>
        <time>2021-07-25T08:13:01Z</time>
      </trkpt>
      <trkpt lat="42.83957" lon="-0.00744">
        <ele>840</ele>
        <time>2021-07-25T08:13:08Z</time>
      </trkpt>
      <trkpt lat="42.83988" lon="-0.00756">
        <ele>840</ele>
        <time>2021-07-25T08:13:30Z</time>
      </trkpt>
      <trkpt lat="42.83992" lon="-0.00758">
        <ele>842</ele>
        <time>2021-07-25T08:13:33Z</time>
      </trkpt>
      <trkpt lat="42.83995" lon="-0.00761">
        <ele>843</ele>
        <time>2021-07-25T08:13:36Z</time>
      </trkpt>
      <trkpt lat="42.84017" lon="-0.00777">
        <ele>845</ele>
        <time>2021-07-25T08:13:54Z</time>
      </trkpt>
      <trkpt lat="42.84021" lon="-0.00778">
        <ele>845</ele>
        <time>2021-07-25T08:13:57Z</time>
      </trkpt>
      <trkpt lat="42.84029" lon="-0.00781">
        <ele>848</ele>
        <time>2021-07-25T08:14:04Z</time>
      </trkpt>
      <trkpt lat="42.84033" lon="-0.00783">
        <ele>851</ele>
        <time>2021-07-25T08:14:09Z</time>
      </trkpt>
      <trkpt lat="42.84038" lon="-0.00785">
        <ele>852</ele>
        <time>2021-07-25T08:14:15Z</time>
      </trkpt>
      <trkpt lat="42.84043" lon="-0.00786">
        <ele>856</ele>
        <time>2021-07-25T08:14:24Z</time>
      </trkpt>
      <trkpt lat="42.84048" lon="-0.00788">
        <ele>857</ele>
        <time>2021-07-25T08:14:31Z</time>
      </trkpt>
      <trkpt lat="42.84051" lon="-0.00793">
        <ele>857</ele>
        <time>2021-07-25T08:14:37Z</time>
      </trkpt>
      <trkpt lat="42.84053" lon="-0.00798">
        <ele>858</ele>
        <time>2021-07-25T08:14:43Z</time>
      </trkpt>
      <trkpt lat="42.84057" lon="-0.00799">
        <ele>858</ele>
        <time>2021-07-25T08:14:49Z</time>
      </trkpt>
      <trkpt lat="42.84065" lon="-0.00803">
        <ele>859</ele>
        <time>2021-07-25T08:14:57Z</time>
      </trkpt>
      <trkpt lat="42.84069" lon="-0.00804">
        <ele>861</ele>
        <time>2021-07-25T08:15:01Z</time>
      </trkpt>
      <trkpt lat="42.84081" lon="-0.00818">
        <ele>861</ele>
        <time>2021-07-25T08:15:20Z</time>
      </trkpt>
      <trkpt lat="42.84089" lon="-0.00829">
        <ele>864</ele>
        <time>2021-07-25T08:15:34Z</time>
      </trkpt>
      <trkpt lat="42.84092" lon="-0.00836">
        <ele>859</ele>
        <time>2021-07-25T08:15:39Z</time>
      </trkpt>
      <trkpt lat="42.84093" lon="-0.00844">
        <ele>858</ele>
        <time>2021-07-25T08:15:46Z</time>
      </trkpt>
      <trkpt lat="42.84093" lon="-0.00857">
        <ele>859</ele>
        <time>2021-07-25T08:15:58Z</time>
      </trkpt>
      <trkpt lat="42.84093" lon="-0.00867">
        <ele>861</ele>
        <time>2021-07-25T08:16:06Z</time>
      </trkpt>
      <trkpt lat="42.84091" lon="-0.00872">
        <ele>863</ele>
        <time>2021-07-25T08:16:09Z</time>
      </trkpt>
      <trkpt lat="42.8409" lon="-0.00879">
        <ele>863</ele>
        <time>2021-07-25T08:16:13Z</time>
      </trkpt>
      <trkpt lat="42.84093" lon="-0.00884">
        <ele>867</ele>
        <time>2021-07-25T08:16:20Z</time>
      </trkpt>
      <trkpt lat="42.84096" lon="-0.00886">
        <ele>868</ele>
        <time>2021-07-25T08:16:25Z</time>
      </trkpt>
      <trkpt lat="42.84097" lon="-0.00891">
        <ele>868</ele>
        <time>2021-07-25T08:16:28Z</time>
      </trkpt>
      <trkpt lat="42.84103" lon="-0.00901">
        <ele>867</ele>
        <time>2021-07-25T08:16:34Z</time>
      </trkpt>
      <trkpt lat="42.84106" lon="-0.00904">
        <ele>867</ele>
        <time>2021-07-25T08:16:39Z</time>
      </trkpt>
      <trkpt lat="42.8411" lon="-0.00905">
        <ele>866</ele>
        <time>2021-07-25T08:16:43Z</time>
      </trkpt>
      <trkpt lat="42.84112" lon="-0.00909">
        <ele>865</ele>
        <time>2021-07-25T08:16:47Z</time>
      </trkpt>
      <trkpt lat="42.84114" lon="-0.00914">
        <ele>862</ele>
        <time>2021-07-25T08:16:50Z</time>
      </trkpt>
      <trkpt lat="42.84116" lon="-0.00918">
        <ele>862</ele>
        <time>2021-07-25T08:16:55Z</time>
      </trkpt>
      <trkpt lat="42.84119" lon="-0.00917">
        <ele>863</ele>
        <time>2021-07-25T08:16:58Z</time>
      </trkpt>
      <trkpt lat="42.84123" lon="-0.00917">
        <ele>863</ele>
        <time>2021-07-25T08:17:03Z</time>
      </trkpt>
      <trkpt lat="42.84121" lon="-0.00929">
        <ele>864</ele>
        <time>2021-07-25T08:17:18Z</time>
      </trkpt>
      <trkpt lat="42.84124" lon="-0.00941">
        <ele>865</ele>
        <time>2021-07-25T08:17:34Z</time>
      </trkpt>
      <trkpt lat="42.84132" lon="-0.00947">
        <ele>867</ele>
        <time>2021-07-25T08:18:00Z</time>
      </trkpt>
      <trkpt lat="42.8413" lon="-0.00959">
        <ele>870</ele>
        <time>2021-07-25T08:18:21Z</time>
      </trkpt>
      <trkpt lat="42.84136" lon="-0.00969">
        <ele>877</ele>
        <time>2021-07-25T08:18:45Z</time>
      </trkpt>
      <trkpt lat="42.84138" lon="-0.00981">
        <ele>879</ele>
        <time>2021-07-25T08:19:03Z</time>
      </trkpt>
      <trkpt lat="42.84141" lon="-0.00994">
        <ele>881</ele>
        <time>2021-07-25T08:19:24Z</time>
      </trkpt>
      <trkpt lat="42.84132" lon="-0.00998">
        <ele>884</ele>
        <time>2021-07-25T08:19:36Z</time>
      </trkpt>
      <trkpt lat="42.84132" lon="-0.01011">
        <ele>891</ele>
        <time>2021-07-25T08:20:09Z</time>
      </trkpt>
      <trkpt lat="42.8414" lon="-0.01015">
        <ele>891</ele>
        <time>2021-07-25T08:20:27Z</time>
      </trkpt>
      <trkpt lat="42.84151" lon="-0.01018">
        <ele>893</ele>
        <time>2021-07-25T08:20:40Z</time>
      </trkpt>
      <trkpt lat="42.84155" lon="-0.01018">
        <ele>893</ele>
        <time>2021-07-25T08:20:44Z</time>
      </trkpt>
      <trkpt lat="42.84158" lon="-0.0102">
        <ele>892</ele>
        <time>2021-07-25T08:20:48Z</time>
      </trkpt>
      <trkpt lat="42.84162" lon="-0.01021">
        <ele>891</ele>
        <time>2021-07-25T08:20:51Z</time>
      </trkpt>
      <trkpt lat="42.84167" lon="-0.01021">
        <ele>891</ele>
        <time>2021-07-25T08:20:55Z</time>
      </trkpt>
      <trkpt lat="42.84171" lon="-0.0102">
        <ele>892</ele>
        <time>2021-07-25T08:21:01Z</time>
      </trkpt>
      <trkpt lat="42.84176" lon="-0.01019">
        <ele>893</ele>
        <time>2021-07-25T08:21:05Z</time>
      </trkpt>
      <trkpt lat="42.8418" lon="-0.0102">
        <ele>894</ele>
        <time>2021-07-25T08:21:10Z</time>
      </trkpt>
      <trkpt lat="42.84189" lon="-0.01018">
        <ele>895</ele>
        <time>2021-07-25T08:21:17Z</time>
      </trkpt>
      <trkpt lat="42.84193" lon="-0.01018">
        <ele>895</ele>
        <time>2021-07-25T08:21:21Z</time>
      </trkpt>
      <trkpt lat="42.84198" lon="-0.01019">
        <ele>897</ele>
        <time>2021-07-25T08:21:25Z</time>
      </trkpt>
      <trkpt lat="42.84202" lon="-0.01022">
        <ele>900</ele>
        <time>2021-07-25T08:21:33Z</time>
      </trkpt>
      <trkpt lat="42.84212" lon="-0.01025">
        <ele>906</ele>
        <time>2021-07-25T08:21:44Z</time>
      </trkpt>
      <trkpt lat="42.84222" lon="-0.01027">
        <ele>905</ele>
        <time>2021-07-25T08:21:54Z</time>
      </trkpt>
      <trkpt lat="42.84241" lon="-0.01032">
        <ele>906</ele>
        <time>2021-07-25T08:22:15Z</time>
      </trkpt>
      <trkpt lat="42.84251" lon="-0.0103">
        <ele>908</ele>
        <time>2021-07-25T08:22:26Z</time>
      </trkpt>
      <trkpt lat="42.84259" lon="-0.01036">
        <ele>908</ele>
        <time>2021-07-25T08:22:38Z</time>
      </trkpt>
      <trkpt lat="42.84274" lon="-0.01053">
        <ele>909</ele>
        <time>2021-07-25T08:22:59Z</time>
      </trkpt>
      <trkpt lat="42.84283" lon="-0.01049">
        <ele>912</ele>
        <time>2021-07-25T08:23:10Z</time>
      </trkpt>
      <trkpt lat="42.84302" lon="-0.01048">
        <ele>912</ele>
        <time>2021-07-25T08:23:33Z</time>
      </trkpt>
      <trkpt lat="42.84312" lon="-0.01049">
        <ele>915</ele>
        <time>2021-07-25T08:23:47Z</time>
      </trkpt>
      <trkpt lat="42.84321" lon="-0.0105">
        <ele>914</ele>
        <time>2021-07-25T08:23:56Z</time>
      </trkpt>
      <trkpt lat="42.84332" lon="-0.01051">
        <ele>911</ele>
        <time>2021-07-25T08:24:06Z</time>
      </trkpt>
      <trkpt lat="42.84342" lon="-0.01051">
        <ele>913</ele>
        <time>2021-07-25T08:24:19Z</time>
      </trkpt>
      <trkpt lat="42.84351" lon="-0.01048">
        <ele>915</ele>
        <time>2021-07-25T08:24:27Z</time>
      </trkpt>
      <trkpt lat="42.8436" lon="-0.01041">
        <ele>916</ele>
        <time>2021-07-25T08:24:38Z</time>
      </trkpt>
      <trkpt lat="42.8437" lon="-0.01039">
        <ele>917</ele>
        <time>2021-07-25T08:24:47Z</time>
      </trkpt>
      <trkpt lat="42.84379" lon="-0.01039">
        <ele>919</ele>
        <time>2021-07-25T08:24:58Z</time>
      </trkpt>
      <trkpt lat="42.84387" lon="-0.01045">
        <ele>923</ele>
        <time>2021-07-25T08:25:09Z</time>
      </trkpt>
      <trkpt lat="42.84396" lon="-0.0105">
        <ele>925</ele>
        <time>2021-07-25T08:25:24Z</time>
      </trkpt>
      <trkpt lat="42.84405" lon="-0.01044">
        <ele>927</ele>
        <time>2021-07-25T08:25:38Z</time>
      </trkpt>
      <trkpt lat="42.84414" lon="-0.01042">
        <ele>924</ele>
        <time>2021-07-25T08:25:59Z</time>
      </trkpt>
      <trkpt lat="42.84423" lon="-0.01038">
        <ele>926</ele>
        <time>2021-07-25T08:26:11Z</time>
      </trkpt>
      <trkpt lat="42.84431" lon="-0.01047">
        <ele>929</ele>
        <time>2021-07-25T08:26:19Z</time>
      </trkpt>
      <trkpt lat="42.8444" lon="-0.01054">
        <ele>930</ele>
        <time>2021-07-25T08:26:29Z</time>
      </trkpt>
      <trkpt lat="42.84455" lon="-0.0107">
        <ele>928</ele>
        <time>2021-07-25T08:26:49Z</time>
      </trkpt>
      <trkpt lat="42.84462" lon="-0.01078">
        <ele>929</ele>
        <time>2021-07-25T08:27:02Z</time>
      </trkpt>
      <trkpt lat="42.84472" lon="-0.01078">
        <ele>932</ele>
        <time>2021-07-25T08:27:16Z</time>
      </trkpt>
      <trkpt lat="42.8448" lon="-0.01083">
        <ele>936</ele>
        <time>2021-07-25T08:27:27Z</time>
      </trkpt>
      <trkpt lat="42.84483" lon="-0.01094">
        <ele>935</ele>
        <time>2021-07-25T08:28:00Z</time>
      </trkpt>
      <trkpt lat="42.84484" lon="-0.0109">
        <ele>936</ele>
        <time>2021-07-25T08:28:20Z</time>
      </trkpt>
      <trkpt lat="42.84488" lon="-0.01091">
        <ele>936</ele>
        <time>2021-07-25T08:28:25Z</time>
      </trkpt>
      <trkpt lat="42.84491" lon="-0.01094">
        <ele>938</ele>
        <time>2021-07-25T08:28:29Z</time>
      </trkpt>
      <trkpt lat="42.84494" lon="-0.01096">
        <ele>937</ele>
        <time>2021-07-25T08:28:34Z</time>
      </trkpt>
      <trkpt lat="42.84496" lon="-0.01091">
        <ele>937</ele>
        <time>2021-07-25T08:28:40Z</time>
      </trkpt>
      <trkpt lat="42.84499" lon="-0.01092">
        <ele>936</ele>
        <time>2021-07-25T08:28:45Z</time>
      </trkpt>
      <trkpt lat="42.84503" lon="-0.01093">
        <ele>937</ele>
        <time>2021-07-25T08:28:53Z</time>
      </trkpt>
      <trkpt lat="42.84511" lon="-0.011">
        <ele>939</ele>
        <time>2021-07-25T08:29:23Z</time>
      </trkpt>
      <trkpt lat="42.84519" lon="-0.01096">
        <ele>940</ele>
        <time>2021-07-25T08:29:40Z</time>
      </trkpt>
      <trkpt lat="42.84526" lon="-0.01096">
        <ele>942</ele>
        <time>2021-07-25T08:29:52Z</time>
      </trkpt>
      <trkpt lat="42.84535" lon="-0.01096">
        <ele>942</ele>
        <time>2021-07-25T08:30:06Z</time>
      </trkpt>
      <trkpt lat="42.84539" lon="-0.01097">
        <ele>944</ele>
        <time>2021-07-25T08:30:16Z</time>
      </trkpt>
      <trkpt lat="42.84543" lon="-0.01098">
        <ele>946</ele>
        <time>2021-07-25T08:30:24Z</time>
      </trkpt>
      <trkpt lat="42.84547" lon="-0.01098">
        <ele>947</ele>
        <time>2021-07-25T08:30:31Z</time>
      </trkpt>
      <trkpt lat="42.8455" lon="-0.01095">
        <ele>949</ele>
        <time>2021-07-25T08:30:37Z</time>
      </trkpt>
      <trkpt lat="42.84554" lon="-0.01092">
        <ele>950</ele>
        <time>2021-07-25T08:30:40Z</time>
      </trkpt>
      <trkpt lat="42.84571" lon="-0.01078">
        <ele>961</ele>
        <time>2021-07-25T08:31:08Z</time>
      </trkpt>
      <trkpt lat="42.84582" lon="-0.01077">
        <ele>964</ele>
        <time>2021-07-25T08:31:25Z</time>
      </trkpt>
      <trkpt lat="42.84611" lon="-0.01074">
        <ele>969</ele>
        <time>2021-07-25T08:31:54Z</time>
      </trkpt>
      <trkpt lat="42.8462" lon="-0.01068">
        <ele>970</ele>
        <time>2021-07-25T08:32:03Z</time>
      </trkpt>
      <trkpt lat="42.84628" lon="-0.01059">
        <ele>968</ele>
        <time>2021-07-25T08:32:18Z</time>
      </trkpt>
      <trkpt lat="42.84638" lon="-0.01057">
        <ele>969</ele>
        <time>2021-07-25T08:32:26Z</time>
      </trkpt>
      <trkpt lat="42.84647" lon="-0.01054">
        <ele>975</ele>
        <time>2021-07-25T08:32:36Z</time>
      </trkpt>
      <trkpt lat="42.84657" lon="-0.01047">
        <ele>977</ele>
        <time>2021-07-25T08:32:52Z</time>
      </trkpt>
      <trkpt lat="42.8468" lon="-0.01034">
        <ele>981</ele>
        <time>2021-07-25T08:33:30Z</time>
      </trkpt>
      <trkpt lat="42.84686" lon="-0.01026">
        <ele>978</ele>
        <time>2021-07-25T08:33:37Z</time>
      </trkpt>
      <trkpt lat="42.84689" lon="-0.01023">
        <ele>978</ele>
        <time>2021-07-25T08:33:40Z</time>
      </trkpt>
      <trkpt lat="42.84703" lon="-0.01017">
        <ele>979</ele>
        <time>2021-07-25T08:33:53Z</time>
      </trkpt>
      <trkpt lat="42.84715" lon="-0.01016">
        <ele>977</ele>
        <time>2021-07-25T08:34:04Z</time>
      </trkpt>
      <trkpt lat="42.84719" lon="-0.01016">
        <ele>973</ele>
        <time>2021-07-25T08:34:08Z</time>
      </trkpt>
      <trkpt lat="42.84726" lon="-0.01018">
        <ele>968</ele>
        <time>2021-07-25T08:34:15Z</time>
      </trkpt>
      <trkpt lat="42.8473" lon="-0.01018">
        <ele>968</ele>
        <time>2021-07-25T08:34:18Z</time>
      </trkpt>
      <trkpt lat="42.84734" lon="-0.01017">
        <ele>968</ele>
        <time>2021-07-25T08:34:22Z</time>
      </trkpt>
      <trkpt lat="42.84744" lon="-0.01021">
        <ele>967</ele>
        <time>2021-07-25T08:34:29Z</time>
      </trkpt>
      <trkpt lat="42.84748" lon="-0.01022">
        <ele>966</ele>
        <time>2021-07-25T08:34:32Z</time>
      </trkpt>
      <trkpt lat="42.84752" lon="-0.01024">
        <ele>966</ele>
        <time>2021-07-25T08:34:35Z</time>
      </trkpt>
      <trkpt lat="42.84759" lon="-0.01027">
        <ele>965</ele>
        <time>2021-07-25T08:34:41Z</time>
      </trkpt>
      <trkpt lat="42.84762" lon="-0.01031">
        <ele>966</ele>
        <time>2021-07-25T08:34:44Z</time>
      </trkpt>
      <trkpt lat="42.84763" lon="-0.01035">
        <ele>968</ele>
        <time>2021-07-25T08:34:48Z</time>
      </trkpt>
      <trkpt lat="42.84768" lon="-0.01035">
        <ele>969</ele>
        <time>2021-07-25T08:34:52Z</time>
      </trkpt>
      <trkpt lat="42.84771" lon="-0.01037">
        <ele>969</ele>
        <time>2021-07-25T08:34:55Z</time>
      </trkpt>
      <trkpt lat="42.84775" lon="-0.01039">
        <ele>971</ele>
        <time>2021-07-25T08:34:58Z</time>
      </trkpt>
      <trkpt lat="42.84778" lon="-0.01038">
        <ele>973</ele>
        <time>2021-07-25T08:35:03Z</time>
      </trkpt>
      <trkpt lat="42.84782" lon="-0.01037">
        <ele>974</ele>
        <time>2021-07-25T08:35:07Z</time>
      </trkpt>
      <trkpt lat="42.84786" lon="-0.01039">
        <ele>975</ele>
        <time>2021-07-25T08:35:12Z</time>
      </trkpt>
      <trkpt lat="42.84791" lon="-0.0104">
        <ele>978</ele>
        <time>2021-07-25T08:35:17Z</time>
      </trkpt>
      <trkpt lat="42.84794" lon="-0.01043">
        <ele>980</ele>
        <time>2021-07-25T08:35:20Z</time>
      </trkpt>
      <trkpt lat="42.84804" lon="-0.01051">
        <ele>977</ele>
        <time>2021-07-25T08:35:31Z</time>
      </trkpt>
      <trkpt lat="42.84835" lon="-0.01058">
        <ele>980</ele>
        <time>2021-07-25T08:35:53Z</time>
      </trkpt>
      <trkpt lat="42.8484" lon="-0.01057">
        <ele>980</ele>
        <time>2021-07-25T08:35:56Z</time>
      </trkpt>
      <trkpt lat="42.84847" lon="-0.01061">
        <ele>980</ele>
        <time>2021-07-25T08:36:02Z</time>
      </trkpt>
      <trkpt lat="42.8485" lon="-0.01065">
        <ele>980</ele>
        <time>2021-07-25T08:36:05Z</time>
      </trkpt>
      <trkpt lat="42.84853" lon="-0.01067">
        <ele>983</ele>
        <time>2021-07-25T08:36:10Z</time>
      </trkpt>
      <trkpt lat="42.84855" lon="-0.01072">
        <ele>984</ele>
        <time>2021-07-25T08:36:19Z</time>
      </trkpt>
      <trkpt lat="42.84856" lon="-0.01077">
        <ele>983</ele>
        <time>2021-07-25T08:36:23Z</time>
      </trkpt>
      <trkpt lat="42.8486" lon="-0.01077">
        <ele>983</ele>
        <time>2021-07-25T08:36:29Z</time>
      </trkpt>
      <trkpt lat="42.84866" lon="-0.01083">
        <ele>984</ele>
        <time>2021-07-25T08:36:40Z</time>
      </trkpt>
      <trkpt lat="42.84869" lon="-0.01081">
        <ele>986</ele>
        <time>2021-07-25T08:36:47Z</time>
      </trkpt>
      <trkpt lat="42.84876" lon="-0.01083">
        <ele>988</ele>
        <time>2021-07-25T08:37:02Z</time>
      </trkpt>
      <trkpt lat="42.84885" lon="-0.01085">
        <ele>989</ele>
        <time>2021-07-25T08:37:23Z</time>
      </trkpt>
      <trkpt lat="42.84904" lon="-0.01087">
        <ele>994</ele>
        <time>2021-07-25T08:37:58Z</time>
      </trkpt>
      <trkpt lat="42.84913" lon="-0.01088">
        <ele>1000</ele>
        <time>2021-07-25T08:38:15Z</time>
      </trkpt>
      <trkpt lat="42.84922" lon="-0.01091">
        <ele>1002</ele>
        <time>2021-07-25T08:38:27Z</time>
      </trkpt>
      <trkpt lat="42.84931" lon="-0.01095">
        <ele>996</ele>
        <time>2021-07-25T08:38:41Z</time>
      </trkpt>
      <trkpt lat="42.8494" lon="-0.01098">
        <ele>1004</ele>
        <time>2021-07-25T08:38:54Z</time>
      </trkpt>
      <trkpt lat="42.84949" lon="-0.01103">
        <ele>1007</ele>
        <time>2021-07-25T08:39:08Z</time>
      </trkpt>
      <trkpt lat="42.84968" lon="-0.01097">
        <ele>1084</ele>
        <time>2021-07-25T08:39:26Z</time>
      </trkpt>
      <trkpt lat="42.84977" lon="-0.01094">
        <ele>1049</ele>
        <time>2021-07-25T08:39:35Z</time>
      </trkpt>
      <trkpt lat="42.84986" lon="-0.01097">
        <ele>1019</ele>
        <time>2021-07-25T08:39:45Z</time>
      </trkpt>
      <trkpt lat="42.84995" lon="-0.011">
        <ele>1014</ele>
        <time>2021-07-25T08:39:53Z</time>
      </trkpt>
      <trkpt lat="42.85005" lon="-0.01103">
        <ele>1005</ele>
        <time>2021-07-25T08:40:02Z</time>
      </trkpt>
      <trkpt lat="42.85015" lon="-0.01103">
        <ele>1003</ele>
        <time>2021-07-25T08:40:12Z</time>
      </trkpt>
      <trkpt lat="42.85025" lon="-0.01103">
        <ele>998</ele>
        <time>2021-07-25T08:40:22Z</time>
      </trkpt>
      <trkpt lat="42.85034" lon="-0.01106">
        <ele>997</ele>
        <time>2021-07-25T08:40:31Z</time>
      </trkpt>
      <trkpt lat="42.85045" lon="-0.01109">
        <ele>995</ele>
        <time>2021-07-25T08:40:42Z</time>
      </trkpt>
      <trkpt lat="42.85054" lon="-0.01111">
        <ele>996</ele>
        <time>2021-07-25T08:40:51Z</time>
      </trkpt>
      <trkpt lat="42.85064" lon="-0.0111">
        <ele>1000</ele>
        <time>2021-07-25T08:40:59Z</time>
      </trkpt>
      <trkpt lat="42.85083" lon="-0.01107">
        <ele>1003</ele>
        <time>2021-07-25T08:41:16Z</time>
      </trkpt>
      <trkpt lat="42.85092" lon="-0.01108">
        <ele>1001</ele>
        <time>2021-07-25T08:41:23Z</time>
      </trkpt>
      <trkpt lat="42.85111" lon="-0.01116">
        <ele>999</ele>
        <time>2021-07-25T08:41:40Z</time>
      </trkpt>
      <trkpt lat="42.8512" lon="-0.01111">
        <ele>1002</ele>
        <time>2021-07-25T08:41:50Z</time>
      </trkpt>
      <trkpt lat="42.85129" lon="-0.01114">
        <ele>1006</ele>
        <time>2021-07-25T08:42:01Z</time>
      </trkpt>
      <trkpt lat="42.85138" lon="-0.01115">
        <ele>1009</ele>
        <time>2021-07-25T08:42:14Z</time>
      </trkpt>
      <trkpt lat="42.85148" lon="-0.01119">
        <ele>1015</ele>
        <time>2021-07-25T08:42:29Z</time>
      </trkpt>
      <trkpt lat="42.85157" lon="-0.0112">
        <ele>1017</ele>
        <time>2021-07-25T08:42:45Z</time>
      </trkpt>
      <trkpt lat="42.85166" lon="-0.01119">
        <ele>1020</ele>
        <time>2021-07-25T08:42:59Z</time>
      </trkpt>
      <trkpt lat="42.85173" lon="-0.01111">
        <ele>1021</ele>
        <time>2021-07-25T08:43:09Z</time>
      </trkpt>
      <trkpt lat="42.85181" lon="-0.0111">
        <ele>1016</ele>
        <time>2021-07-25T08:43:39Z</time>
      </trkpt>
      <trkpt lat="42.85185" lon="-0.01109">
        <ele>1016</ele>
        <time>2021-07-25T08:43:43Z</time>
      </trkpt>
      <trkpt lat="42.85189" lon="-0.01108">
        <ele>1015</ele>
        <time>2021-07-25T08:43:46Z</time>
      </trkpt>
      <trkpt lat="42.85193" lon="-0.01106">
        <ele>1015</ele>
        <time>2021-07-25T08:43:49Z</time>
      </trkpt>
      <trkpt lat="42.85197" lon="-0.01106">
        <ele>1015</ele>
        <time>2021-07-25T08:43:54Z</time>
      </trkpt>
      <trkpt lat="42.85202" lon="-0.01106">
        <ele>1017</ele>
        <time>2021-07-25T08:43:58Z</time>
      </trkpt>
      <trkpt lat="42.85223" lon="-0.01108">
        <ele>1020</ele>
        <time>2021-07-25T08:44:20Z</time>
      </trkpt>
      <trkpt lat="42.85232" lon="-0.01107">
        <ele>1019</ele>
        <time>2021-07-25T08:44:28Z</time>
      </trkpt>
      <trkpt lat="42.85236" lon="-0.01106">
        <ele>1019</ele>
        <time>2021-07-25T08:44:32Z</time>
      </trkpt>
      <trkpt lat="42.8524" lon="-0.01104">
        <ele>1021</ele>
        <time>2021-07-25T08:44:36Z</time>
      </trkpt>
      <trkpt lat="42.85255" lon="-0.01112">
        <ele>1024</ele>
        <time>2021-07-25T08:44:55Z</time>
      </trkpt>
      <trkpt lat="42.85259" lon="-0.01114">
        <ele>1023</ele>
        <time>2021-07-25T08:44:59Z</time>
      </trkpt>
      <trkpt lat="42.85263" lon="-0.01115">
        <ele>1023</ele>
        <time>2021-07-25T08:45:03Z</time>
      </trkpt>
      <trkpt lat="42.85267" lon="-0.01115">
        <ele>1026</ele>
        <time>2021-07-25T08:45:10Z</time>
      </trkpt>
      <trkpt lat="42.8527" lon="-0.01119">
        <ele>1026</ele>
        <time>2021-07-25T08:45:15Z</time>
      </trkpt>
      <trkpt lat="42.85273" lon="-0.01124">
        <ele>1022</ele>
        <time>2021-07-25T08:45:19Z</time>
      </trkpt>
      <trkpt lat="42.85277" lon="-0.01123">
        <ele>1022</ele>
        <time>2021-07-25T08:45:25Z</time>
      </trkpt>
      <trkpt lat="42.85279" lon="-0.01119">
        <ele>1026</ele>
        <time>2021-07-25T08:45:29Z</time>
      </trkpt>
      <trkpt lat="42.85283" lon="-0.01116">
        <ele>1029</ele>
        <time>2021-07-25T08:45:34Z</time>
      </trkpt>
      <trkpt lat="42.85292" lon="-0.0111">
        <ele>1031</ele>
        <time>2021-07-25T08:45:44Z</time>
      </trkpt>
      <trkpt lat="42.85292" lon="-0.01107">
        <ele>1038</ele>
        <time>2021-07-25T08:46:20Z</time>
      </trkpt>
      <trkpt lat="42.85296" lon="-0.0111">
        <ele>1037</ele>
        <time>2021-07-25T08:46:23Z</time>
      </trkpt>
      <trkpt lat="42.853" lon="-0.01111">
        <ele>1037</ele>
        <time>2021-07-25T08:46:26Z</time>
      </trkpt>
      <trkpt lat="42.85304" lon="-0.01109">
        <ele>1038</ele>
        <time>2021-07-25T08:46:29Z</time>
      </trkpt>
      <trkpt lat="42.8532" lon="-0.01122">
        <ele>1038</ele>
        <time>2021-07-25T08:46:39Z</time>
      </trkpt>
      <trkpt lat="42.85329" lon="-0.01134">
        <ele>1038</ele>
        <time>2021-07-25T08:46:45Z</time>
      </trkpt>
      <trkpt lat="42.85332" lon="-0.01139">
        <ele>1037</ele>
        <time>2021-07-25T08:46:47Z</time>
      </trkpt>
      <trkpt lat="42.85335" lon="-0.01147">
        <ele>1036</ele>
        <time>2021-07-25T08:46:50Z</time>
      </trkpt>
      <trkpt lat="42.85339" lon="-0.0115">
        <ele>1036</ele>
        <time>2021-07-25T08:46:53Z</time>
      </trkpt>
      <trkpt lat="42.85344" lon="-0.01151">
        <ele>1036</ele>
        <time>2021-07-25T08:46:56Z</time>
      </trkpt>
      <trkpt lat="42.85344" lon="-0.0114">
        <ele>1035</ele>
        <time>2021-07-25T08:47:02Z</time>
      </trkpt>
      <trkpt lat="42.85346" lon="-0.01136">
        <ele>1035</ele>
        <time>2021-07-25T08:47:04Z</time>
      </trkpt>
      <trkpt lat="42.85357" lon="-0.01128">
        <ele>1036</ele>
        <time>2021-07-25T08:47:11Z</time>
      </trkpt>
      <trkpt lat="42.85366" lon="-0.01122">
        <ele>1034</ele>
        <time>2021-07-25T08:47:17Z</time>
      </trkpt>
      <trkpt lat="42.85375" lon="-0.01126">
        <ele>1029</ele>
        <time>2021-07-25T08:47:41Z</time>
      </trkpt>
      <trkpt lat="42.85384" lon="-0.01129">
        <ele>1028</ele>
        <time>2021-07-25T08:47:51Z</time>
      </trkpt>
      <trkpt lat="42.85393" lon="-0.01134">
        <ele>1050</ele>
        <time>2021-07-25T08:48:24Z</time>
      </trkpt>
      <trkpt lat="42.85402" lon="-0.01134">
        <ele>1027</ele>
        <time>2021-07-25T08:48:36Z</time>
      </trkpt>
      <trkpt lat="42.85412" lon="-0.01137">
        <ele>1024</ele>
        <time>2021-07-25T08:48:45Z</time>
      </trkpt>
      <trkpt lat="42.85421" lon="-0.01132">
        <ele>1017</ele>
        <time>2021-07-25T08:48:52Z</time>
      </trkpt>
      <trkpt lat="42.85431" lon="-0.01132">
        <ele>1024</ele>
        <time>2021-07-25T08:48:57Z</time>
      </trkpt>
      <trkpt lat="42.8544" lon="-0.01134">
        <ele>1016</ele>
        <time>2021-07-25T08:49:04Z</time>
      </trkpt>
      <trkpt lat="42.85446" lon="-0.01145">
        <ele>1010</ele>
        <time>2021-07-25T08:49:23Z</time>
      </trkpt>
      <trkpt lat="42.85456" lon="-0.01143">
        <ele>1009</ele>
        <time>2021-07-25T08:49:30Z</time>
      </trkpt>
      <trkpt lat="42.85476" lon="-0.01143">
        <ele>1006</ele>
        <time>2021-07-25T08:49:44Z</time>
      </trkpt>
      <trkpt lat="42.85483" lon="-0.01154">
        <ele>1001</ele>
        <time>2021-07-25T08:49:51Z</time>
      </trkpt>
      <trkpt lat="42.85491" lon="-0.0116">
        <ele>998</ele>
        <time>2021-07-25T08:49:59Z</time>
      </trkpt>
      <trkpt lat="42.85497" lon="-0.0117">
        <ele>997</ele>
        <time>2021-07-25T08:50:09Z</time>
      </trkpt>
      <trkpt lat="42.85505" lon="-0.01177">
        <ele>993</ele>
        <time>2021-07-25T08:50:19Z</time>
      </trkpt>
      <trkpt lat="42.85514" lon="-0.01177">
        <ele>991</ele>
        <time>2021-07-25T08:50:30Z</time>
      </trkpt>
      <trkpt lat="42.85518" lon="-0.01184">
        <ele>990</ele>
        <time>2021-07-25T08:50:35Z</time>
      </trkpt>
      <trkpt lat="42.85523" lon="-0.01179">
        <ele>990</ele>
        <time>2021-07-25T08:50:39Z</time>
      </trkpt>
      <trkpt lat="42.85527" lon="-0.01166">
        <ele>989</ele>
        <time>2021-07-25T08:50:46Z</time>
      </trkpt>
      <trkpt lat="42.85529" lon="-0.01161">
        <ele>985</ele>
        <time>2021-07-25T08:50:50Z</time>
      </trkpt>
      <trkpt lat="42.85534" lon="-0.01155">
        <ele>982</ele>
        <time>2021-07-25T08:50:54Z</time>
      </trkpt>
      <trkpt lat="42.85539" lon="-0.01155">
        <ele>981</ele>
        <time>2021-07-25T08:50:58Z</time>
      </trkpt>
      <trkpt lat="42.85543" lon="-0.01156">
        <ele>983</ele>
        <time>2021-07-25T08:51:01Z</time>
      </trkpt>
      <trkpt lat="42.85546" lon="-0.01158">
        <ele>983</ele>
        <time>2021-07-25T08:51:04Z</time>
      </trkpt>
      <trkpt lat="42.8555" lon="-0.01162">
        <ele>981</ele>
        <time>2021-07-25T08:51:07Z</time>
      </trkpt>
      <trkpt lat="42.85555" lon="-0.01169">
        <ele>979</ele>
        <time>2021-07-25T08:51:13Z</time>
      </trkpt>
      <trkpt lat="42.85559" lon="-0.01171">
        <ele>977</ele>
        <time>2021-07-25T08:51:16Z</time>
      </trkpt>
      <trkpt lat="42.85574" lon="-0.01177">
        <ele>975</ele>
        <time>2021-07-25T08:51:28Z</time>
      </trkpt>
      <trkpt lat="42.85583" lon="-0.01179">
        <ele>975</ele>
        <time>2021-07-25T08:51:34Z</time>
      </trkpt>
      <trkpt lat="42.8559" lon="-0.01191">
        <ele>974</ele>
        <time>2021-07-25T08:51:44Z</time>
      </trkpt>
      <trkpt lat="42.85602" lon="-0.01195">
        <ele>970</ele>
        <time>2021-07-25T08:51:53Z</time>
      </trkpt>
      <trkpt lat="42.85641" lon="-0.01216">
        <ele>968</ele>
        <time>2021-07-25T08:52:24Z</time>
      </trkpt>
      <trkpt lat="42.85646" lon="-0.01217">
        <ele>967</ele>
        <time>2021-07-25T08:52:28Z</time>
      </trkpt>
      <trkpt lat="42.85649" lon="-0.01219">
        <ele>966</ele>
        <time>2021-07-25T08:52:31Z</time>
      </trkpt>
      <trkpt lat="42.85653" lon="-0.0122">
        <ele>963</ele>
        <time>2021-07-25T08:52:34Z</time>
      </trkpt>
      <trkpt lat="42.85657" lon="-0.01222">
        <ele>961</ele>
        <time>2021-07-25T08:52:38Z</time>
      </trkpt>
      <trkpt lat="42.8566" lon="-0.01225">
        <ele>961</ele>
        <time>2021-07-25T08:52:43Z</time>
      </trkpt>
      <trkpt lat="42.8567" lon="-0.01229">
        <ele>958</ele>
        <time>2021-07-25T08:52:52Z</time>
      </trkpt>
      <trkpt lat="42.85675" lon="-0.01228">
        <ele>957</ele>
        <time>2021-07-25T08:52:56Z</time>
      </trkpt>
      <trkpt lat="42.85684" lon="-0.01231">
        <ele>955</ele>
        <time>2021-07-25T08:53:03Z</time>
      </trkpt>
      <trkpt lat="42.85688" lon="-0.01232">
        <ele>955</ele>
        <time>2021-07-25T08:53:06Z</time>
      </trkpt>
      <trkpt lat="42.85698" lon="-0.01222">
        <ele>957</ele>
        <time>2021-07-25T08:53:15Z</time>
      </trkpt>
      <trkpt lat="42.857" lon="-0.01217">
        <ele>958</ele>
        <time>2021-07-25T08:53:18Z</time>
      </trkpt>
      <trkpt lat="42.857" lon="-0.01212">
        <ele>957</ele>
        <time>2021-07-25T08:53:22Z</time>
      </trkpt>
      <trkpt lat="42.85702" lon="-0.01207">
        <ele>955</ele>
        <time>2021-07-25T08:53:25Z</time>
      </trkpt>
      <trkpt lat="42.85706" lon="-0.01198">
        <ele>952</ele>
        <time>2021-07-25T08:53:32Z</time>
      </trkpt>
      <trkpt lat="42.85708" lon="-0.01192">
        <ele>952</ele>
        <time>2021-07-25T08:53:37Z</time>
      </trkpt>
      <trkpt lat="42.85711" lon="-0.0119">
        <ele>951</ele>
        <time>2021-07-25T08:53:41Z</time>
      </trkpt>
      <trkpt lat="42.85715" lon="-0.01193">
        <ele>950</ele>
        <time>2021-07-25T08:53:44Z</time>
      </trkpt>
      <trkpt lat="42.85717" lon="-0.01199">
        <ele>947</ele>
        <time>2021-07-25T08:53:47Z</time>
      </trkpt>
      <trkpt lat="42.85719" lon="-0.01205">
        <ele>944</ele>
        <time>2021-07-25T08:53:52Z</time>
      </trkpt>
      <trkpt lat="42.85732" lon="-0.01203">
        <ele>944</ele>
        <time>2021-07-25T08:54:00Z</time>
      </trkpt>
      <trkpt lat="42.85734" lon="-0.01207">
        <ele>943</ele>
        <time>2021-07-25T08:54:30Z</time>
      </trkpt>
      <trkpt lat="42.85737" lon="-0.01212">
        <ele>943</ele>
        <time>2021-07-25T08:54:33Z</time>
      </trkpt>
      <trkpt lat="42.85753" lon="-0.01225">
        <ele>938</ele>
        <time>2021-07-25T08:54:45Z</time>
      </trkpt>
      <trkpt lat="42.85757" lon="-0.01227">
        <ele>938</ele>
        <time>2021-07-25T08:54:48Z</time>
      </trkpt>
      <trkpt lat="42.85765" lon="-0.01231">
        <ele>944</ele>
        <time>2021-07-25T08:54:54Z</time>
      </trkpt>
      <trkpt lat="42.85772" lon="-0.01235">
        <ele>938</ele>
        <time>2021-07-25T08:55:01Z</time>
      </trkpt>
      <trkpt lat="42.85784" lon="-0.01232">
        <ele>933</ele>
        <time>2021-07-25T08:55:11Z</time>
      </trkpt>
      <trkpt lat="42.85814" lon="-0.01214">
        <ele>929</ele>
        <time>2021-07-25T08:55:37Z</time>
      </trkpt>
      <trkpt lat="42.85819" lon="-0.01214">
        <ele>927</ele>
        <time>2021-07-25T08:55:40Z</time>
      </trkpt>
      <trkpt lat="42.85839" lon="-0.01208">
        <ele>919</ele>
        <time>2021-07-25T08:55:55Z</time>
      </trkpt>
      <trkpt lat="42.8585" lon="-0.01202">
        <ele>922</ele>
        <time>2021-07-25T08:56:04Z</time>
      </trkpt>
      <trkpt lat="42.85853" lon="-0.01198">
        <ele>920</ele>
        <time>2021-07-25T08:56:07Z</time>
      </trkpt>
      <trkpt lat="42.85857" lon="-0.01197">
        <ele>918</ele>
        <time>2021-07-25T08:56:10Z</time>
      </trkpt>
      <trkpt lat="42.85865" lon="-0.01194">
        <ele>916</ele>
        <time>2021-07-25T08:56:15Z</time>
      </trkpt>
      <trkpt lat="42.85877" lon="-0.01195">
        <ele>914</ele>
        <time>2021-07-25T08:56:23Z</time>
      </trkpt>
      <trkpt lat="42.85881" lon="-0.01195">
        <ele>914</ele>
        <time>2021-07-25T08:56:26Z</time>
      </trkpt>
      <trkpt lat="42.85885" lon="-0.01196">
        <ele>912</ele>
        <time>2021-07-25T08:56:29Z</time>
      </trkpt>
      <trkpt lat="42.8589" lon="-0.01196">
        <ele>917</ele>
        <time>2021-07-25T08:56:32Z</time>
      </trkpt>
      <trkpt lat="42.8591" lon="-0.01192">
        <ele>909</ele>
        <time>2021-07-25T08:56:47Z</time>
      </trkpt>
      <trkpt lat="42.85923" lon="-0.01191">
        <ele>908</ele>
        <time>2021-07-25T08:56:56Z</time>
      </trkpt>
      <trkpt lat="42.85932" lon="-0.01187">
        <ele>909</ele>
        <time>2021-07-25T08:57:02Z</time>
      </trkpt>
      <trkpt lat="42.85941" lon="-0.0119">
        <ele>907</ele>
        <time>2021-07-25T08:57:08Z</time>
      </trkpt>
      <trkpt lat="42.85952" lon="-0.01195">
        <ele>908</ele>
        <time>2021-07-25T08:57:16Z</time>
      </trkpt>
      <trkpt lat="42.85977" lon="-0.01202">
        <ele>912</ele>
        <time>2021-07-25T08:57:34Z</time>
      </trkpt>
      <trkpt lat="42.86011" lon="-0.01228">
        <ele>910</ele>
        <time>2021-07-25T08:58:00Z</time>
      </trkpt>
      <trkpt lat="42.86018" lon="-0.01236">
        <ele>907</ele>
        <time>2021-07-25T08:58:06Z</time>
      </trkpt>
      <trkpt lat="42.86021" lon="-0.01239">
        <ele>907</ele>
        <time>2021-07-25T08:58:09Z</time>
      </trkpt>
      <trkpt lat="42.86029" lon="-0.0125">
        <ele>901</ele>
        <time>2021-07-25T08:58:18Z</time>
      </trkpt>
      <trkpt lat="42.86032" lon="-0.01255">
        <ele>901</ele>
        <time>2021-07-25T08:58:21Z</time>
      </trkpt>
      <trkpt lat="42.86034" lon="-0.0126">
        <ele>900</ele>
        <time>2021-07-25T08:58:24Z</time>
      </trkpt>
      <trkpt lat="42.86039" lon="-0.01268">
        <ele>895</ele>
        <time>2021-07-25T08:58:30Z</time>
      </trkpt>
      <trkpt lat="42.86043" lon="-0.0127">
        <ele>894</ele>
        <time>2021-07-25T08:58:33Z</time>
      </trkpt>
      <trkpt lat="42.86067" lon="-0.01276">
        <ele>896</ele>
        <time>2021-07-25T08:58:54Z</time>
      </trkpt>
      <trkpt lat="42.86071" lon="-0.01278">
        <ele>894</ele>
        <time>2021-07-25T08:58:57Z</time>
      </trkpt>
      <trkpt lat="42.86075" lon="-0.01279">
        <ele>893</ele>
        <time>2021-07-25T08:59:00Z</time>
      </trkpt>
      <trkpt lat="42.86083" lon="-0.01281">
        <ele>894</ele>
        <time>2021-07-25T08:59:06Z</time>
      </trkpt>
      <trkpt lat="42.86086" lon="-0.01277">
        <ele>894</ele>
        <time>2021-07-25T08:59:10Z</time>
      </trkpt>
      <trkpt lat="42.86085" lon="-0.0127">
        <ele>895</ele>
        <time>2021-07-25T08:59:13Z</time>
      </trkpt>
      <trkpt lat="42.86083" lon="-0.01266">
        <ele>897</ele>
        <time>2021-07-25T08:59:16Z</time>
      </trkpt>
      <trkpt lat="42.86073" lon="-0.01257">
        <ele>894</ele>
        <time>2021-07-25T08:59:25Z</time>
      </trkpt>
      <trkpt lat="42.86066" lon="-0.01252">
        <ele>889</ele>
        <time>2021-07-25T08:59:31Z</time>
      </trkpt>
      <trkpt lat="42.86063" lon="-0.01249">
        <ele>887</ele>
        <time>2021-07-25T08:59:34Z</time>
      </trkpt>
      <trkpt lat="42.86055" lon="-0.0125">
        <ele>887</ele>
        <time>2021-07-25T08:59:40Z</time>
      </trkpt>
      <trkpt lat="42.86051" lon="-0.01247">
        <ele>885</ele>
        <time>2021-07-25T08:59:44Z</time>
      </trkpt>
      <trkpt lat="42.86044" lon="-0.01241">
        <ele>883</ele>
        <time>2021-07-25T08:59:51Z</time>
      </trkpt>
      <trkpt lat="42.86041" lon="-0.01235">
        <ele>882</ele>
        <time>2021-07-25T08:59:55Z</time>
      </trkpt>
      <trkpt lat="42.86038" lon="-0.01231">
        <ele>881</ele>
        <time>2021-07-25T08:59:59Z</time>
      </trkpt>
      <trkpt lat="42.86036" lon="-0.01227">
        <ele>881</ele>
        <time>2021-07-25T09:00:11Z</time>
      </trkpt>
      <trkpt lat="42.86028" lon="-0.01216">
        <ele>880</ele>
        <time>2021-07-25T09:00:20Z</time>
      </trkpt>
      <trkpt lat="42.86021" lon="-0.01204">
        <ele>879</ele>
        <time>2021-07-25T09:00:29Z</time>
      </trkpt>
      <trkpt lat="42.86018" lon="-0.01201">
        <ele>876</ele>
        <time>2021-07-25T09:00:32Z</time>
      </trkpt>
      <trkpt lat="42.8601" lon="-0.01193">
        <ele>876</ele>
        <time>2021-07-25T09:00:38Z</time>
      </trkpt>
      <trkpt lat="42.86006" lon="-0.01191">
        <ele>874</ele>
        <time>2021-07-25T09:00:42Z</time>
      </trkpt>
      <trkpt lat="42.86005" lon="-0.01185">
        <ele>873</ele>
        <time>2021-07-25T09:00:47Z</time>
      </trkpt>
      <trkpt lat="42.86041" lon="-0.01169">
        <ele>876</ele>
        <time>2021-07-25T09:01:12Z</time>
      </trkpt>
      <trkpt lat="42.8605" lon="-0.01171">
        <ele>873</ele>
        <time>2021-07-25T09:01:18Z</time>
      </trkpt>
      <trkpt lat="42.86054" lon="-0.01171">
        <ele>872</ele>
        <time>2021-07-25T09:01:21Z</time>
      </trkpt>
      <trkpt lat="42.86063" lon="-0.01172">
        <ele>867</ele>
        <time>2021-07-25T09:01:27Z</time>
      </trkpt>
      <trkpt lat="42.86066" lon="-0.01172">
        <ele>868</ele>
        <time>2021-07-25T09:01:30Z</time>
      </trkpt>
      <trkpt lat="42.86071" lon="-0.0117">
        <ele>867</ele>
        <time>2021-07-25T09:01:34Z</time>
      </trkpt>
      <trkpt lat="42.86075" lon="-0.01169">
        <ele>867</ele>
        <time>2021-07-25T09:01:38Z</time>
      </trkpt>
      <trkpt lat="42.86088" lon="-0.01163">
        <ele>866</ele>
        <time>2021-07-25T09:01:47Z</time>
      </trkpt>
      <trkpt lat="42.86106" lon="-0.0116">
        <ele>868</ele>
        <time>2021-07-25T09:01:59Z</time>
      </trkpt>
      <trkpt lat="42.86111" lon="-0.01161">
        <ele>866</ele>
        <time>2021-07-25T09:02:03Z</time>
      </trkpt>
      <trkpt lat="42.86132" lon="-0.0117">
        <ele>867</ele>
        <time>2021-07-25T09:02:18Z</time>
      </trkpt>
      <trkpt lat="42.86135" lon="-0.01173">
        <ele>866</ele>
        <time>2021-07-25T09:02:20Z</time>
      </trkpt>
      <trkpt lat="42.86144" lon="-0.01183">
        <ele>865</ele>
        <time>2021-07-25T09:02:29Z</time>
      </trkpt>
      <trkpt lat="42.86148" lon="-0.01187">
        <ele>864</ele>
        <time>2021-07-25T09:02:32Z</time>
      </trkpt>
      <trkpt lat="42.8615" lon="-0.01183">
        <ele>861</ele>
        <time>2021-07-25T09:02:51Z</time>
      </trkpt>
      <trkpt lat="42.8615" lon="-0.01178">
        <ele>859</ele>
        <time>2021-07-25T09:02:54Z</time>
      </trkpt>
      <trkpt lat="42.86142" lon="-0.0116">
        <ele>858</ele>
        <time>2021-07-25T09:03:06Z</time>
      </trkpt>
      <trkpt lat="42.8614" lon="-0.01155">
        <ele>857</ele>
        <time>2021-07-25T09:03:09Z</time>
      </trkpt>
      <trkpt lat="42.86144" lon="-0.01153">
        <ele>857</ele>
        <time>2021-07-25T09:03:11Z</time>
      </trkpt>
      <trkpt lat="42.86156" lon="-0.01161">
        <ele>853</ele>
        <time>2021-07-25T09:03:17Z</time>
      </trkpt>
      <trkpt lat="42.8616" lon="-0.01159">
        <ele>852</ele>
        <time>2021-07-25T09:03:20Z</time>
      </trkpt>
      <trkpt lat="42.86161" lon="-0.01154">
        <ele>852</ele>
        <time>2021-07-25T09:03:23Z</time>
      </trkpt>
      <trkpt lat="42.86165" lon="-0.01154">
        <ele>851</ele>
        <time>2021-07-25T09:03:25Z</time>
      </trkpt>
      <trkpt lat="42.86174" lon="-0.01156">
        <ele>868</ele>
        <time>2021-07-25T09:03:30Z</time>
      </trkpt>
      <trkpt lat="42.86177" lon="-0.0116">
        <ele>861</ele>
        <time>2021-07-25T09:03:35Z</time>
      </trkpt>
      <trkpt lat="42.86179" lon="-0.01156">
        <ele>849</ele>
        <time>2021-07-25T09:04:20Z</time>
      </trkpt>
      <trkpt lat="42.8618" lon="-0.01149">
        <ele>848</ele>
        <time>2021-07-25T09:04:23Z</time>
      </trkpt>
      <trkpt lat="42.86179" lon="-0.01144">
        <ele>852</ele>
        <time>2021-07-25T09:04:26Z</time>
      </trkpt>
      <trkpt lat="42.86177" lon="-0.0114">
        <ele>849</ele>
        <time>2021-07-25T09:04:29Z</time>
      </trkpt>
      <trkpt lat="42.86176" lon="-0.01135">
        <ele>849</ele>
        <time>2021-07-25T09:04:32Z</time>
      </trkpt>
      <trkpt lat="42.86175" lon="-0.0113">
        <ele>847</ele>
        <time>2021-07-25T09:04:35Z</time>
      </trkpt>
      <trkpt lat="42.86175" lon="-0.01126">
        <ele>847</ele>
        <time>2021-07-25T09:04:37Z</time>
      </trkpt>
      <trkpt lat="42.86178" lon="-0.01122">
        <ele>846</ele>
        <time>2021-07-25T09:04:40Z</time>
      </trkpt>
      <trkpt lat="42.86183" lon="-0.01123">
        <ele>847</ele>
        <time>2021-07-25T09:04:45Z</time>
      </trkpt>
      <trkpt lat="42.86185" lon="-0.01127">
        <ele>847</ele>
        <time>2021-07-25T09:04:49Z</time>
      </trkpt>
      <trkpt lat="42.86191" lon="-0.01136">
        <ele>849</ele>
        <time>2021-07-25T09:04:57Z</time>
      </trkpt>
      <trkpt lat="42.86194" lon="-0.01141">
        <ele>848</ele>
        <time>2021-07-25T09:05:00Z</time>
      </trkpt>
      <trkpt lat="42.86195" lon="-0.01147">
        <ele>847</ele>
        <time>2021-07-25T09:05:02Z</time>
      </trkpt>
      <trkpt lat="42.86203" lon="-0.01166">
        <ele>843</ele>
        <time>2021-07-25T09:05:08Z</time>
      </trkpt>
      <trkpt lat="42.86206" lon="-0.01159">
        <ele>842</ele>
        <time>2021-07-25T09:05:14Z</time>
      </trkpt>
      <trkpt lat="42.86209" lon="-0.01155">
        <ele>842</ele>
        <time>2021-07-25T09:05:16Z</time>
      </trkpt>
      <trkpt lat="42.86214" lon="-0.01156">
        <ele>840</ele>
        <time>2021-07-25T09:05:18Z</time>
      </trkpt>
      <trkpt lat="42.86218" lon="-0.01162">
        <ele>840</ele>
        <time>2021-07-25T09:05:20Z</time>
      </trkpt>
      <trkpt lat="42.8622" lon="-0.01168">
        <ele>839</ele>
        <time>2021-07-25T09:05:22Z</time>
      </trkpt>
      <trkpt lat="42.86221" lon="-0.01171">
        <ele>836</ele>
        <time>2021-07-25T09:05:27Z</time>
      </trkpt>
      <trkpt lat="42.86224" lon="-0.01168">
        <ele>836</ele>
        <time>2021-07-25T09:05:29Z</time>
      </trkpt>
      <trkpt lat="42.8624" lon="-0.01183">
        <ele>829</ele>
        <time>2021-07-25T09:05:44Z</time>
      </trkpt>
      <trkpt lat="42.86244" lon="-0.01186">
        <ele>828</ele>
        <time>2021-07-25T09:05:47Z</time>
      </trkpt>
      <trkpt lat="42.86249" lon="-0.01189">
        <ele>828</ele>
        <time>2021-07-25T09:05:51Z</time>
      </trkpt>
      <trkpt lat="42.86251" lon="-0.01192">
        <ele>825</ele>
        <time>2021-07-25T09:05:56Z</time>
      </trkpt>
      <trkpt lat="42.86255" lon="-0.01189">
        <ele>824</ele>
        <time>2021-07-25T09:06:01Z</time>
      </trkpt>
      <trkpt lat="42.86252" lon="-0.01185">
        <ele>823</ele>
        <time>2021-07-25T09:06:06Z</time>
      </trkpt>
      <trkpt lat="42.8625" lon="-0.01181">
        <ele>817</ele>
        <time>2021-07-25T09:06:11Z</time>
      </trkpt>
      <trkpt lat="42.86247" lon="-0.01179">
        <ele>813</ele>
        <time>2021-07-25T09:06:14Z</time>
      </trkpt>
      <trkpt lat="42.86242" lon="-0.01178">
        <ele>809</ele>
        <time>2021-07-25T09:06:18Z</time>
      </trkpt>
      <trkpt lat="42.86242" lon="-0.01172">
        <ele>808</ele>
        <time>2021-07-25T09:06:22Z</time>
      </trkpt>
      <trkpt lat="42.86239" lon="-0.0116">
        <ele>806</ele>
        <time>2021-07-25T09:06:29Z</time>
      </trkpt>
      <trkpt lat="42.86243" lon="-0.01161">
        <ele>806</ele>
        <time>2021-07-25T09:06:54Z</time>
      </trkpt>
      <trkpt lat="42.86247" lon="-0.01161">
        <ele>805</ele>
        <time>2021-07-25T09:06:58Z</time>
      </trkpt>
      <trkpt lat="42.86249" lon="-0.01158">
        <ele>795</ele>
        <time>2021-07-25T09:07:12Z</time>
      </trkpt>
      <trkpt lat="42.86238" lon="-0.01143">
        <ele>791</ele>
        <time>2021-07-25T09:07:22Z</time>
      </trkpt>
      <trkpt lat="42.86236" lon="-0.01135">
        <ele>791</ele>
        <time>2021-07-25T09:07:24Z</time>
      </trkpt>
      <trkpt lat="42.86235" lon="-0.01126">
        <ele>790</ele>
        <time>2021-07-25T09:07:26Z</time>
      </trkpt>
      <trkpt lat="42.86235" lon="-0.01093">
        <ele>788</ele>
        <time>2021-07-25T09:07:35Z</time>
      </trkpt>
      <trkpt lat="42.86234" lon="-0.01087">
        <ele>788</ele>
        <time>2021-07-25T09:07:37Z</time>
      </trkpt>
      <trkpt lat="42.8623" lon="-0.01084">
        <ele>787</ele>
        <time>2021-07-25T09:07:39Z</time>
      </trkpt>
      <trkpt lat="42.86215" lon="-0.01054">
        <ele>786</ele>
        <time>2021-07-25T09:07:54Z</time>
      </trkpt>
      <trkpt lat="42.86214" lon="-0.01048">
        <ele>785</ele>
        <time>2021-07-25T09:07:57Z</time>
      </trkpt>
      <trkpt lat="42.86212" lon="-0.01043">
        <ele>785</ele>
        <time>2021-07-25T09:08:00Z</time>
      </trkpt>
      <trkpt lat="42.86208" lon="-0.01034">
        <ele>783</ele>
        <time>2021-07-25T09:08:05Z</time>
      </trkpt>
      <trkpt lat="42.86206" lon="-0.01029">
        <ele>784</ele>
        <time>2021-07-25T09:08:08Z</time>
      </trkpt>
      <trkpt lat="42.86199" lon="-0.01019">
        <ele>784</ele>
        <time>2021-07-25T09:08:14Z</time>
      </trkpt>
      <trkpt lat="42.86182" lon="-0.00987">
        <ele>780</ele>
        <time>2021-07-25T09:08:23Z</time>
      </trkpt>
      <trkpt lat="42.86176" lon="-0.00977">
        <ele>778</ele>
        <time>2021-07-25T09:08:27Z</time>
      </trkpt>
      <trkpt lat="42.86184" lon="-0.00971">
        <ele>776</ele>
        <time>2021-07-25T09:08:33Z</time>
      </trkpt>
      <trkpt lat="42.86193" lon="-0.00972">
        <ele>775</ele>
        <time>2021-07-25T09:08:37Z</time>
      </trkpt>
      <trkpt lat="42.86204" lon="-0.00975">
        <ele>773</ele>
        <time>2021-07-25T09:08:41Z</time>
      </trkpt>
      <trkpt lat="42.86213" lon="-0.00982">
        <ele>772</ele>
        <time>2021-07-25T09:08:46Z</time>
      </trkpt>
      <trkpt lat="42.86218" lon="-0.0098">
        <ele>769</ele>
        <time>2021-07-25T09:08:48Z</time>
      </trkpt>
      <trkpt lat="42.86222" lon="-0.00981">
        <ele>766</ele>
        <time>2021-07-25T09:08:50Z</time>
      </trkpt>
      <trkpt lat="42.86229" lon="-0.00992">
        <ele>763</ele>
        <time>2021-07-25T09:08:54Z</time>
      </trkpt>
      <trkpt lat="42.86232" lon="-0.00995">
        <ele>762</ele>
        <time>2021-07-25T09:08:56Z</time>
      </trkpt>
      <trkpt lat="42.86234" lon="-0.00991">
        <ele>761</ele>
        <time>2021-07-25T09:08:58Z</time>
      </trkpt>
      <trkpt lat="42.86232" lon="-0.00979">
        <ele>757</ele>
        <time>2021-07-25T09:09:02Z</time>
      </trkpt>
      <trkpt lat="42.86232" lon="-0.00974">
        <ele>754</ele>
        <time>2021-07-25T09:09:04Z</time>
      </trkpt>
      <trkpt lat="42.86235" lon="-0.00969">
        <ele>752</ele>
        <time>2021-07-25T09:09:09Z</time>
      </trkpt>
      <trkpt lat="42.86239" lon="-0.00965">
        <ele>752</ele>
        <time>2021-07-25T09:09:12Z</time>
      </trkpt>
      <trkpt lat="42.86242" lon="-0.00962">
        <ele>751</ele>
        <time>2021-07-25T09:09:15Z</time>
      </trkpt>
      <trkpt lat="42.86246" lon="-0.0096">
        <ele>750</ele>
        <time>2021-07-25T09:09:18Z</time>
      </trkpt>
      <trkpt lat="42.8625" lon="-0.00961">
        <ele>750</ele>
        <time>2021-07-25T09:09:21Z</time>
      </trkpt>
      <trkpt lat="42.86253" lon="-0.00965">
        <ele>748</ele>
        <time>2021-07-25T09:09:23Z</time>
      </trkpt>
      <trkpt lat="42.86264" lon="-0.00983">
        <ele>746</ele>
        <time>2021-07-25T09:09:34Z</time>
      </trkpt>
      <trkpt lat="42.86271" lon="-0.00991">
        <ele>753</ele>
        <time>2021-07-25T09:09:40Z</time>
      </trkpt>
      <trkpt lat="42.86297" lon="-0.0104">
        <ele>742</ele>
        <time>2021-07-25T09:10:10Z</time>
      </trkpt>
      <trkpt lat="42.86299" lon="-0.01044">
        <ele>742</ele>
        <time>2021-07-25T09:10:13Z</time>
      </trkpt>
      <trkpt lat="42.863" lon="-0.0105">
        <ele>751</ele>
        <time>2021-07-25T09:10:27Z</time>
      </trkpt>
      <trkpt lat="42.86304" lon="-0.01068">
        <ele>743</ele>
        <time>2021-07-25T09:10:36Z</time>
      </trkpt>
      <trkpt lat="42.86304" lon="-0.01074">
        <ele>742</ele>
        <time>2021-07-25T09:10:39Z</time>
      </trkpt>
      <trkpt lat="42.86305" lon="-0.01079">
        <ele>743</ele>
        <time>2021-07-25T09:10:42Z</time>
      </trkpt>
      <trkpt lat="42.86306" lon="-0.01086">
        <ele>742</ele>
        <time>2021-07-25T09:10:46Z</time>
      </trkpt>
      <trkpt lat="42.86322" lon="-0.01097">
        <ele>741</ele>
        <time>2021-07-25T09:10:56Z</time>
      </trkpt>
      <trkpt lat="42.86325" lon="-0.01103">
        <ele>741</ele>
        <time>2021-07-25T09:10:59Z</time>
      </trkpt>
      <trkpt lat="42.86328" lon="-0.01108">
        <ele>741</ele>
        <time>2021-07-25T09:11:02Z</time>
      </trkpt>
      <trkpt lat="42.86333" lon="-0.0111">
        <ele>742</ele>
        <time>2021-07-25T09:11:05Z</time>
      </trkpt>
      <trkpt lat="42.86338" lon="-0.01114">
        <ele>741</ele>
        <time>2021-07-25T09:11:09Z</time>
      </trkpt>
      <trkpt lat="42.86349" lon="-0.01119">
        <ele>742</ele>
        <time>2021-07-25T09:11:16Z</time>
      </trkpt>
      <trkpt lat="42.86354" lon="-0.01121">
        <ele>743</ele>
        <time>2021-07-25T09:11:19Z</time>
      </trkpt>
      <trkpt lat="42.86356" lon="-0.01127">
        <ele>742</ele>
        <time>2021-07-25T09:11:22Z</time>
      </trkpt>
      <trkpt lat="42.86376" lon="-0.01145">
        <ele>744</ele>
        <time>2021-07-25T09:11:37Z</time>
      </trkpt>
      <trkpt lat="42.86384" lon="-0.01145">
        <ele>745</ele>
        <time>2021-07-25T09:11:43Z</time>
      </trkpt>
      <trkpt lat="42.86388" lon="-0.01144">
        <ele>745</ele>
        <time>2021-07-25T09:11:45Z</time>
      </trkpt>
      <trkpt lat="42.86392" lon="-0.01144">
        <ele>747</ele>
        <time>2021-07-25T09:11:48Z</time>
      </trkpt>
      <trkpt lat="42.864" lon="-0.01143">
        <ele>746</ele>
        <time>2021-07-25T09:11:53Z</time>
      </trkpt>
      <trkpt lat="42.86413" lon="-0.01147">
        <ele>746</ele>
        <time>2021-07-25T09:12:03Z</time>
      </trkpt>
      <trkpt lat="42.86418" lon="-0.01145">
        <ele>747</ele>
        <time>2021-07-25T09:12:06Z</time>
      </trkpt>
      <trkpt lat="42.86417" lon="-0.01139">
        <ele>749</ele>
        <time>2021-07-25T09:12:15Z</time>
      </trkpt>
      <trkpt lat="42.86418" lon="-0.01135">
        <ele>748</ele>
        <time>2021-07-25T09:12:18Z</time>
      </trkpt>
      <trkpt lat="42.86421" lon="-0.01131">
        <ele>748</ele>
        <time>2021-07-25T09:12:24Z</time>
      </trkpt>
      <trkpt lat="42.86424" lon="-0.01135">
        <ele>748</ele>
        <time>2021-07-25T09:12:32Z</time>
      </trkpt>
      <trkpt lat="42.86426" lon="-0.0114">
        <ele>745</ele>
        <time>2021-07-25T09:12:36Z</time>
      </trkpt>
      <trkpt lat="42.86434" lon="-0.01145">
        <ele>744</ele>
        <time>2021-07-25T09:12:43Z</time>
      </trkpt>
      <trkpt lat="42.86451" lon="-0.01149">
        <ele>745</ele>
        <time>2021-07-25T09:12:55Z</time>
      </trkpt>
      <trkpt lat="42.86486" lon="-0.01157">
        <ele>738</ele>
        <time>2021-07-25T09:13:19Z</time>
      </trkpt>
      <trkpt lat="42.86513" lon="-0.01185">
        <ele>737</ele>
        <time>2021-07-25T09:13:40Z</time>
      </trkpt>
      <trkpt lat="42.8652" lon="-0.0119">
        <ele>737</ele>
        <time>2021-07-25T09:13:46Z</time>
      </trkpt>
      <trkpt lat="42.86524" lon="-0.01192">
        <ele>737</ele>
        <time>2021-07-25T09:13:51Z</time>
      </trkpt>
      <trkpt lat="42.86527" lon="-0.01194">
        <ele>736</ele>
        <time>2021-07-25T09:13:55Z</time>
      </trkpt>
      <trkpt lat="42.86537" lon="-0.01195">
        <ele>733</ele>
        <time>2021-07-25T09:14:01Z</time>
      </trkpt>
      <trkpt lat="42.8654" lon="-0.01194">
        <ele>733</ele>
        <time>2021-07-25T09:14:03Z</time>
      </trkpt>
      <trkpt lat="42.86547" lon="-0.01189">
        <ele>731</ele>
        <time>2021-07-25T09:14:07Z</time>
      </trkpt>
      <trkpt lat="42.8655" lon="-0.01185">
        <ele>730</ele>
        <time>2021-07-25T09:14:09Z</time>
      </trkpt>
      <trkpt lat="42.86552" lon="-0.01179">
        <ele>730</ele>
        <time>2021-07-25T09:14:12Z</time>
      </trkpt>
      <trkpt lat="42.86555" lon="-0.01159">
        <ele>730</ele>
        <time>2021-07-25T09:14:25Z</time>
      </trkpt>
      <trkpt lat="42.86556" lon="-0.01154">
        <ele>729</ele>
        <time>2021-07-25T09:14:28Z</time>
      </trkpt>
      <trkpt lat="42.86563" lon="-0.01146">
        <ele>722</ele>
        <time>2021-07-25T09:14:35Z</time>
      </trkpt>
      <trkpt lat="42.86576" lon="-0.01141">
        <ele>721</ele>
        <time>2021-07-25T09:14:44Z</time>
      </trkpt>
      <trkpt lat="42.86588" lon="-0.01142">
        <ele>719</ele>
        <time>2021-07-25T09:14:51Z</time>
      </trkpt>
      <trkpt lat="42.86594" lon="-0.01133">
        <ele>718</ele>
        <time>2021-07-25T09:14:56Z</time>
      </trkpt>
      <trkpt lat="42.86598" lon="-0.01128">
        <ele>716</ele>
        <time>2021-07-25T09:14:58Z</time>
      </trkpt>
      <trkpt lat="42.86602" lon="-0.01128">
        <ele>715</ele>
        <time>2021-07-25T09:15:00Z</time>
      </trkpt>
      <trkpt lat="42.86611" lon="-0.01131">
        <ele>714</ele>
        <time>2021-07-25T09:15:05Z</time>
      </trkpt>
      <trkpt lat="42.86615" lon="-0.01131">
        <ele>710</ele>
        <time>2021-07-25T09:15:08Z</time>
      </trkpt>
      <trkpt lat="42.86623" lon="-0.01132">
        <ele>706</ele>
        <time>2021-07-25T09:15:14Z</time>
      </trkpt>
      <trkpt lat="42.86627" lon="-0.0113">
        <ele>705</ele>
        <time>2021-07-25T09:15:17Z</time>
      </trkpt>
      <trkpt lat="42.86636" lon="-0.01127">
        <ele>706</ele>
        <time>2021-07-25T09:15:24Z</time>
      </trkpt>
      <trkpt lat="42.86639" lon="-0.01125">
        <ele>705</ele>
        <time>2021-07-25T09:15:27Z</time>
      </trkpt>
      <trkpt lat="42.86647" lon="-0.01119">
        <ele>704</ele>
        <time>2021-07-25T09:15:33Z</time>
      </trkpt>
      <trkpt lat="42.8665" lon="-0.01115">
        <ele>706</ele>
        <time>2021-07-25T09:15:36Z</time>
      </trkpt>
      <trkpt lat="42.86692" lon="-0.01095">
        <ele>705</ele>
        <time>2021-07-25T09:16:08Z</time>
      </trkpt>
      <trkpt lat="42.86705" lon="-0.01087">
        <ele>706</ele>
        <time>2021-07-25T09:16:17Z</time>
      </trkpt>
      <trkpt lat="42.86709" lon="-0.01086">
        <ele>704</ele>
        <time>2021-07-25T09:16:20Z</time>
      </trkpt>
      <trkpt lat="42.86713" lon="-0.01086">
        <ele>704</ele>
        <time>2021-07-25T09:16:23Z</time>
      </trkpt>
      <trkpt lat="42.86741" lon="-0.01102">
        <ele>698</ele>
        <time>2021-07-25T09:16:44Z</time>
      </trkpt>
      <trkpt lat="42.86746" lon="-0.01104">
        <ele>714</ele>
        <time>2021-07-25T09:16:48Z</time>
      </trkpt>
      <trkpt lat="42.86749" lon="-0.01103">
        <ele>722</ele>
        <time>2021-07-25T09:16:51Z</time>
      </trkpt>
      <trkpt lat="42.86748" lon="-0.0108">
        <ele>698</ele>
        <time>2021-07-25T09:17:03Z</time>
      </trkpt>
      <trkpt lat="42.86754" lon="-0.01058">
        <ele>694</ele>
        <time>2021-07-25T09:17:15Z</time>
      </trkpt>
      <trkpt lat="42.86761" lon="-0.01041">
        <ele>693</ele>
        <time>2021-07-25T09:17:24Z</time>
      </trkpt>
      <trkpt lat="42.86764" lon="-0.01036">
        <ele>715</ele>
        <time>2021-07-25T09:17:27Z</time>
      </trkpt>
      <trkpt lat="42.8678" lon="-0.00986">
        <ele>689</ele>
        <time>2021-07-25T09:17:57Z</time>
      </trkpt>
      <trkpt lat="42.86783" lon="-0.00983">
        <ele>689</ele>
        <time>2021-07-25T09:18:00Z</time>
      </trkpt>
      <trkpt lat="42.86788" lon="-0.00984">
        <ele>690</ele>
        <time>2021-07-25T09:18:03Z</time>
      </trkpt>
      <trkpt lat="42.86792" lon="-0.00986">
        <ele>691</ele>
        <time>2021-07-25T09:18:06Z</time>
      </trkpt>
      <trkpt lat="42.86805" lon="-0.00981">
        <ele>691</ele>
        <time>2021-07-25T09:18:15Z</time>
      </trkpt>
      <trkpt lat="42.86816" lon="-0.00979">
        <ele>705</ele>
        <time>2021-07-25T09:18:24Z</time>
      </trkpt>
      <trkpt lat="42.86825" lon="-0.00977">
        <ele>698</ele>
        <time>2021-07-25T09:18:30Z</time>
      </trkpt>
      <trkpt lat="42.8683" lon="-0.00977">
        <ele>697</ele>
        <time>2021-07-25T09:18:33Z</time>
      </trkpt>
      <trkpt lat="42.86871" lon="-0.00968">
        <ele>693</ele>
        <time>2021-07-25T09:19:03Z</time>
      </trkpt>
      <trkpt lat="42.86875" lon="-0.00969">
        <ele>704</ele>
        <time>2021-07-25T09:19:06Z</time>
      </trkpt>
      <trkpt lat="42.86883" lon="-0.00969">
        <ele>704</ele>
        <time>2021-07-25T09:19:12Z</time>
      </trkpt>
      <trkpt lat="42.86911" lon="-0.00963">
        <ele>690</ele>
        <time>2021-07-25T09:19:34Z</time>
      </trkpt>
      <trkpt lat="42.86923" lon="-0.00956">
        <ele>691</ele>
        <time>2021-07-25T09:19:43Z</time>
      </trkpt>
      <trkpt lat="42.86937" lon="-0.00942">
        <ele>690</ele>
        <time>2021-07-25T09:19:54Z</time>
      </trkpt>
      <trkpt lat="42.86942" lon="-0.00933">
        <ele>707</ele>
        <time>2021-07-25T09:20:00Z</time>
      </trkpt>
      <trkpt lat="42.86969" lon="-0.0089">
        <ele>695</ele>
        <time>2021-07-25T09:20:30Z</time>
      </trkpt>
      <trkpt lat="42.86998" lon="-0.00842">
        <ele>695</ele>
        <time>2021-07-25T09:21:00Z</time>
      </trkpt>
      <trkpt lat="42.87031" lon="-0.00793">
        <ele>713</ele>
        <time>2021-07-25T09:21:32Z</time>
      </trkpt>
      <trkpt lat="42.87041" lon="-0.0078">
        <ele>705</ele>
        <time>2021-07-25T09:21:41Z</time>
      </trkpt>
      <trkpt lat="42.87044" lon="-0.00775">
        <ele>716</ele>
        <time>2021-07-25T09:21:44Z</time>
      </trkpt>
      <trkpt lat="42.87045" lon="-0.0077">
        <ele>711</ele>
        <time>2021-07-25T09:21:47Z</time>
      </trkpt>
      <trkpt lat="42.87049" lon="-0.00759">
        <ele>709</ele>
        <time>2021-07-25T09:21:52Z</time>
      </trkpt>
      <trkpt lat="42.87051" lon="-0.00755">
        <ele>716</ele>
        <time>2021-07-25T09:21:55Z</time>
      </trkpt>
      <trkpt lat="42.87055" lon="-0.00751">
        <ele>733</ele>
        <time>2021-07-25T09:21:58Z</time>
      </trkpt>
      <trkpt lat="42.87057" lon="-0.00748">
        <ele>729</ele>
        <time>2021-07-25T09:22:01Z</time>
      </trkpt>
    </trkseg>
  </trk>
</gpx>